<?xml version="1.0" encoding="UTF-8" standalone="no" ?><gpx xmlns="http://www.topografix.com/GPX/1/1" xmlns:gpxx="http://www.garmin.com/xmlschemas/GpxExtensions/v3" xmlns:wptx1="http://www.garmin.com/xmlschemas/WaypointExtension/v1" xmlns:gpxtpx="http://www.garmin.com/xmlschemas/TrackPointExtension/v1" creator="GuideVTT.com" version="1.1" xmlns:xsi="http://www.w3.org/2001/XMLSchema-instance" xsi:schemaLocation="http://www.topografix.com/GPX/1/1 http://www.topografix.com/GPX/1/1/gpx.xsd http://www.garmin.com/xmlschemas/GpxExtensions/v3 http://www8.garmin.com/xmlschemas/GpxExtensionsv3.xsd http://www.garmin.com/xmlschemas/WaypointExtension/v1 http://www8.garmin.com/xmlschemas/WaypointExtensionv1.xsd http://www.garmin.com/xmlschemas/TrackPointExtension/v1 http://www.garmin.com/xmlschemas/TrackPointExtensionv1.xsd">
<metadata><link href="http://www.garmin.com"><text>Garmin International</text></link><time>2013-06-22T15:13:50Z</time></metadata>
<trk><name>rp2018_06.gpx</name><extensions><gpxx:TrackExtension><gpxx:DisplayColor>Cyan</gpxx:DisplayColor></gpxx:TrackExtension></extensions><trkseg>
<trkpt lat="46.20646" lon="7.43988"><ele></ele><time>2018-6-13T20:49:53Z</time></trkpt>
<trkpt lat="46.20647" lon="7.43988"><ele></ele><time>2018-6-13T20:49:56Z</time></trkpt>
<trkpt lat="46.20649" lon="7.43994"><ele></ele><time>2018-6-13T20:49:59Z</time></trkpt>
<trkpt lat="46.20651" lon="7.43998"><ele></ele><time>2018-6-13T20:50:2Z</time></trkpt>
<trkpt lat="46.20652" lon="7.44001"><ele></ele><time>2018-6-13T20:50:5Z</time></trkpt>
<trkpt lat="46.20664" lon="7.44023"><ele></ele><time>2018-6-13T20:50:8Z</time></trkpt>
<trkpt lat="46.2068" lon="7.44039"><ele></ele><time>2018-6-13T20:50:11Z</time></trkpt>
<trkpt lat="46.20691" lon="7.44046"><ele></ele><time>2018-6-13T20:50:14Z</time></trkpt>
<trkpt lat="46.2071" lon="7.44056"><ele></ele><time>2018-6-13T20:50:17Z</time></trkpt>
<trkpt lat="46.20728" lon="7.44065"><ele></ele><time>2018-6-13T20:50:20Z</time></trkpt>
<trkpt lat="46.20748" lon="7.44072"><ele></ele><time>2018-6-13T20:50:23Z</time></trkpt>
<trkpt lat="46.20763" lon="7.44075"><ele></ele><time>2018-6-13T20:50:26Z</time></trkpt>
<trkpt lat="46.20786" lon="7.44074"><ele></ele><time>2018-6-13T20:50:29Z</time></trkpt>
<trkpt lat="46.20804" lon="7.44072"><ele></ele><time>2018-6-13T20:50:32Z</time></trkpt>
<trkpt lat="46.20822" lon="7.44065"><ele></ele><time>2018-6-13T20:50:35Z</time></trkpt>
<trkpt lat="46.20831" lon="7.44061"><ele></ele><time>2018-6-13T20:50:38Z</time></trkpt>
<trkpt lat="46.2084" lon="7.44056"><ele></ele><time>2018-6-13T20:50:41Z</time></trkpt>
<trkpt lat="46.2085" lon="7.44051"><ele></ele><time>2018-6-13T20:50:44Z</time></trkpt>
<trkpt lat="46.20867" lon="7.44043"><ele></ele><time>2018-6-13T20:50:47Z</time></trkpt>
<trkpt lat="46.20892" lon="7.4403"><ele></ele><time>2018-6-13T20:50:50Z</time></trkpt>
<trkpt lat="46.209" lon="7.44028"><ele></ele><time>2018-6-13T20:50:53Z</time></trkpt>
<trkpt lat="46.20925" lon="7.4404"><ele></ele><time>2018-6-13T20:50:56Z</time></trkpt>
<trkpt lat="46.20945" lon="7.44044"><ele></ele><time>2018-6-13T20:50:59Z</time></trkpt>
<trkpt lat="46.20966" lon="7.44034"><ele></ele><time>2018-6-13T20:51:2Z</time></trkpt>
<trkpt lat="46.20986" lon="7.44017"><ele></ele><time>2018-6-13T20:51:5Z</time></trkpt>
<trkpt lat="46.20996" lon="7.44007"><ele></ele><time>2018-6-13T20:51:8Z</time></trkpt>
<trkpt lat="46.21015" lon="7.43987"><ele></ele><time>2018-6-13T20:51:11Z</time></trkpt>
<trkpt lat="46.21025" lon="7.43977"><ele></ele><time>2018-6-13T20:51:14Z</time></trkpt>
<trkpt lat="46.21042" lon="7.43953"><ele></ele><time>2018-6-13T20:51:17Z</time></trkpt>
<trkpt lat="46.21056" lon="7.43927"><ele></ele><time>2018-6-13T20:51:20Z</time></trkpt>
<trkpt lat="46.21064" lon="7.43916"><ele></ele><time>2018-6-13T20:51:23Z</time></trkpt>
<trkpt lat="46.21083" lon="7.43898"><ele></ele><time>2018-6-13T20:51:26Z</time></trkpt>
<trkpt lat="46.21104" lon="7.43885"><ele></ele><time>2018-6-13T20:51:29Z</time></trkpt>
<trkpt lat="46.21125" lon="7.4387"><ele></ele><time>2018-6-13T20:51:32Z</time></trkpt>
<trkpt lat="46.21143" lon="7.43849"><ele></ele><time>2018-6-13T20:51:35Z</time></trkpt>
<trkpt lat="46.2116" lon="7.43825"><ele></ele><time>2018-6-13T20:51:38Z</time></trkpt>
<trkpt lat="46.21175" lon="7.438"><ele></ele><time>2018-6-13T20:51:41Z</time></trkpt>
<trkpt lat="46.21189" lon="7.43776"><ele></ele><time>2018-6-13T20:51:44Z</time></trkpt>
<trkpt lat="46.21201" lon="7.43753"><ele></ele><time>2018-6-13T20:51:47Z</time></trkpt>
<trkpt lat="46.21208" lon="7.43743"><ele></ele><time>2018-6-13T20:51:50Z</time></trkpt>
<trkpt lat="46.21225" lon="7.43716"><ele></ele><time>2018-6-13T20:51:53Z</time></trkpt>
<trkpt lat="46.2124" lon="7.43695"><ele></ele><time>2018-6-13T20:51:56Z</time></trkpt>
<trkpt lat="46.21245" lon="7.43691"><ele></ele><time>2018-6-13T20:51:59Z</time></trkpt>
<trkpt lat="46.21255" lon="7.43681"><ele></ele><time>2018-6-13T20:52:2Z</time></trkpt>
<trkpt lat="46.21258" lon="7.43679"><ele></ele><time>2018-6-13T20:52:5Z</time></trkpt>
<trkpt lat="46.21263" lon="7.43674"><ele></ele><time>2018-6-13T20:52:8Z</time></trkpt>
<trkpt lat="46.21264" lon="7.43672"><ele></ele><time>2018-6-13T20:52:11Z</time></trkpt>
<trkpt lat="46.21269" lon="7.43667"><ele></ele><time>2018-6-13T20:52:14Z</time></trkpt>
<trkpt lat="46.2127" lon="7.43665"><ele></ele><time>2018-6-13T20:52:17Z</time></trkpt>
<trkpt lat="46.21275" lon="7.43659"><ele></ele><time>2018-6-13T20:52:20Z</time></trkpt>
<trkpt lat="46.21284" lon="7.4365"><ele></ele><time>2018-6-13T20:52:23Z</time></trkpt>
<trkpt lat="46.21286" lon="7.43649"><ele></ele><time>2018-6-13T20:52:26Z</time></trkpt>
<trkpt lat="46.21288" lon="7.43646"><ele></ele><time>2018-6-13T20:52:29Z</time></trkpt>
<trkpt lat="46.2129" lon="7.43645"><ele></ele><time>2018-6-13T20:52:32Z</time></trkpt>
<trkpt lat="46.21293" lon="7.43639"><ele></ele><time>2018-6-13T20:52:35Z</time></trkpt>
<trkpt lat="46.21298" lon="7.43636"><ele></ele><time>2018-6-13T20:52:38Z</time></trkpt>
<trkpt lat="46.21302" lon="7.43632"><ele></ele><time>2018-6-13T20:52:41Z</time></trkpt>
<trkpt lat="46.21303" lon="7.43631"><ele></ele><time>2018-6-13T20:52:44Z</time></trkpt>
<trkpt lat="46.21306" lon="7.43628"><ele></ele><time>2018-6-13T20:52:47Z</time></trkpt>
<trkpt lat="46.21312" lon="7.43622"><ele></ele><time>2018-6-13T20:52:50Z</time></trkpt>
<trkpt lat="46.21316" lon="7.43618"><ele></ele><time>2018-6-13T20:52:53Z</time></trkpt>
<trkpt lat="46.21317" lon="7.43617"><ele></ele><time>2018-6-13T20:52:56Z</time></trkpt>
<trkpt lat="46.21323" lon="7.4361"><ele></ele><time>2018-6-13T20:52:59Z</time></trkpt>
<trkpt lat="46.21325" lon="7.43609"><ele></ele><time>2018-6-13T20:53:2Z</time></trkpt>
<trkpt lat="46.21336" lon="7.43599"><ele></ele><time>2018-6-13T20:53:5Z</time></trkpt>
<trkpt lat="46.21347" lon="7.43591"><ele></ele><time>2018-6-13T20:53:8Z</time></trkpt>
<trkpt lat="46.21349" lon="7.4359"><ele></ele><time>2018-6-13T20:53:11Z</time></trkpt>
<trkpt lat="46.21366" lon="7.43578"><ele></ele><time>2018-6-13T20:53:14Z</time></trkpt>
<trkpt lat="46.21381" lon="7.43565"><ele></ele><time>2018-6-13T20:53:17Z</time></trkpt>
<trkpt lat="46.21397" lon="7.43549"><ele></ele><time>2018-6-13T20:53:20Z</time></trkpt>
<trkpt lat="46.21405" lon="7.43541"><ele></ele><time>2018-6-13T20:53:23Z</time></trkpt>
<trkpt lat="46.2142" lon="7.43525"><ele></ele><time>2018-6-13T20:53:26Z</time></trkpt>
<trkpt lat="46.21436" lon="7.43511"><ele></ele><time>2018-6-13T20:53:29Z</time></trkpt>
<trkpt lat="46.21446" lon="7.43505"><ele></ele><time>2018-6-13T20:53:32Z</time></trkpt>
<trkpt lat="46.21469" lon="7.43498"><ele></ele><time>2018-6-13T20:53:35Z</time></trkpt>
<trkpt lat="46.21487" lon="7.43497"><ele></ele><time>2018-6-13T20:53:38Z</time></trkpt>
<trkpt lat="46.21489" lon="7.43496"><ele></ele><time>2018-6-13T20:53:41Z</time></trkpt>
<trkpt lat="46.21497" lon="7.43502"><ele></ele><time>2018-6-13T20:53:44Z</time></trkpt>
<trkpt lat="46.21505" lon="7.4351"><ele></ele><time>2018-6-13T20:53:47Z</time></trkpt>
<trkpt lat="46.21517" lon="7.43531"><ele></ele><time>2018-6-13T20:53:50Z</time></trkpt>
<trkpt lat="46.21521" lon="7.43536"><ele></ele><time>2018-6-13T20:53:53Z</time></trkpt>
<trkpt lat="46.21524" lon="7.43545"><ele></ele><time>2018-6-13T20:53:56Z</time></trkpt>
<trkpt lat="46.21534" lon="7.43552"><ele></ele><time>2018-6-13T20:53:59Z</time></trkpt>
<trkpt lat="46.21545" lon="7.43555"><ele></ele><time>2018-6-13T20:54:2Z</time></trkpt>
<trkpt lat="46.21559" lon="7.43561"><ele></ele><time>2018-6-13T20:54:5Z</time></trkpt>
<trkpt lat="46.21577" lon="7.43568"><ele></ele><time>2018-6-13T20:54:8Z</time></trkpt>
<trkpt lat="46.21578" lon="7.43567"><ele></ele><time>2018-6-13T20:54:11Z</time></trkpt>
<trkpt lat="46.21594" lon="7.43563"><ele></ele><time>2018-6-13T20:54:14Z</time></trkpt>
<trkpt lat="46.21612" lon="7.43568"><ele></ele><time>2018-6-13T20:54:17Z</time></trkpt>
<trkpt lat="46.21636" lon="7.43573"><ele></ele><time>2018-6-13T20:54:20Z</time></trkpt>
<trkpt lat="46.21654" lon="7.43578"><ele></ele><time>2018-6-13T20:54:23Z</time></trkpt>
<trkpt lat="46.21672" lon="7.43585"><ele></ele><time>2018-6-13T20:54:26Z</time></trkpt>
<trkpt lat="46.2169" lon="7.43591"><ele></ele><time>2018-6-13T20:54:29Z</time></trkpt>
<trkpt lat="46.21708" lon="7.43597"><ele></ele><time>2018-6-13T20:54:32Z</time></trkpt>
<trkpt lat="46.21732" lon="7.43597"><ele></ele><time>2018-6-13T20:54:35Z</time></trkpt>
<trkpt lat="46.2175" lon="7.43588"><ele></ele><time>2018-6-13T20:54:38Z</time></trkpt>
<trkpt lat="46.21766" lon="7.43576"><ele></ele><time>2018-6-13T20:54:41Z</time></trkpt>
<trkpt lat="46.21783" lon="7.43562"><ele></ele><time>2018-6-13T20:54:44Z</time></trkpt>
<trkpt lat="46.218" lon="7.43552"><ele></ele><time>2018-6-13T20:54:47Z</time></trkpt>
<trkpt lat="46.2182" lon="7.43538"><ele></ele><time>2018-6-13T20:54:50Z</time></trkpt>
<trkpt lat="46.21833" lon="7.43529"><ele></ele><time>2018-6-13T20:54:53Z</time></trkpt>
<trkpt lat="46.21822" lon="7.43513"><ele></ele><time>2018-6-13T20:54:56Z</time></trkpt>
<trkpt lat="46.21806" lon="7.43512"><ele></ele><time>2018-6-13T20:54:59Z</time></trkpt>
<trkpt lat="46.21785" lon="7.43519"><ele></ele><time>2018-6-13T20:55:2Z</time></trkpt>
<trkpt lat="46.21767" lon="7.43528"><ele></ele><time>2018-6-13T20:55:5Z</time></trkpt>
<trkpt lat="46.21753" lon="7.43532"><ele></ele><time>2018-6-13T20:55:8Z</time></trkpt>
<trkpt lat="46.21733" lon="7.4353"><ele></ele><time>2018-6-13T20:55:11Z</time></trkpt>
<trkpt lat="46.2172" lon="7.43527"><ele></ele><time>2018-6-13T20:55:14Z</time></trkpt>
<trkpt lat="46.21709" lon="7.43526"><ele></ele><time>2018-6-13T20:55:17Z</time></trkpt>
<trkpt lat="46.21704" lon="7.43526"><ele></ele><time>2018-6-13T20:55:20Z</time></trkpt>
<trkpt lat="46.21691" lon="7.43522"><ele></ele><time>2018-6-13T20:55:23Z</time></trkpt>
<trkpt lat="46.21679" lon="7.43511"><ele></ele><time>2018-6-13T20:55:26Z</time></trkpt>
<trkpt lat="46.21666" lon="7.43489"><ele></ele><time>2018-6-13T20:55:29Z</time></trkpt>
<trkpt lat="46.21649" lon="7.43472"><ele></ele><time>2018-6-13T20:55:32Z</time></trkpt>
<trkpt lat="46.2164" lon="7.43463"><ele></ele><time>2018-6-13T20:55:35Z</time></trkpt>
<trkpt lat="46.21622" lon="7.43455"><ele></ele><time>2018-6-13T20:55:38Z</time></trkpt>
<trkpt lat="46.2161" lon="7.43453"><ele></ele><time>2018-6-13T20:55:41Z</time></trkpt>
<trkpt lat="46.21609" lon="7.43453"><ele></ele><time>2018-6-13T20:55:44Z</time></trkpt>
<trkpt lat="46.21609" lon="7.43448"><ele></ele><time>2018-6-13T20:55:47Z</time></trkpt>
<trkpt lat="46.21595" lon="7.43428"><ele></ele><time>2018-6-13T20:55:50Z</time></trkpt>
<trkpt lat="46.21591" lon="7.43424"><ele></ele><time>2018-6-13T20:55:53Z</time></trkpt>
<trkpt lat="46.21583" lon="7.43416"><ele></ele><time>2018-6-13T20:55:56Z</time></trkpt>
<trkpt lat="46.21578" lon="7.43408"><ele></ele><time>2018-6-13T20:55:59Z</time></trkpt>
<trkpt lat="46.21565" lon="7.43385"><ele></ele><time>2018-6-13T20:56:2Z</time></trkpt>
<trkpt lat="46.21553" lon="7.43362"><ele></ele><time>2018-6-13T20:56:5Z</time></trkpt>
<trkpt lat="46.21546" lon="7.43353"><ele></ele><time>2018-6-13T20:56:8Z</time></trkpt>
<trkpt lat="46.2153" lon="7.43336"><ele></ele><time>2018-6-13T20:56:11Z</time></trkpt>
<trkpt lat="46.21519" lon="7.43325"><ele></ele><time>2018-6-13T20:56:14Z</time></trkpt>
<trkpt lat="46.21503" lon="7.43307"><ele></ele><time>2018-6-13T20:56:17Z</time></trkpt>
<trkpt lat="46.21494" lon="7.43297"><ele></ele><time>2018-6-13T20:56:20Z</time></trkpt>
<trkpt lat="46.21478" lon="7.43277"><ele></ele><time>2018-6-13T20:56:23Z</time></trkpt>
<trkpt lat="46.21474" lon="7.43272"><ele></ele><time>2018-6-13T20:56:26Z</time></trkpt>
<trkpt lat="46.21471" lon="7.43265"><ele></ele><time>2018-6-13T20:56:29Z</time></trkpt>
<trkpt lat="46.21467" lon="7.43259"><ele></ele><time>2018-6-13T20:56:32Z</time></trkpt>
<trkpt lat="46.21463" lon="7.43252"><ele></ele><time>2018-6-13T20:56:35Z</time></trkpt>
<trkpt lat="46.21458" lon="7.43241"><ele></ele><time>2018-6-13T20:56:38Z</time></trkpt>
<trkpt lat="46.21451" lon="7.43214"><ele></ele><time>2018-6-13T20:56:41Z</time></trkpt>
<trkpt lat="46.21448" lon="7.43194"><ele></ele><time>2018-6-13T20:56:44Z</time></trkpt>
<trkpt lat="46.21444" lon="7.43157"><ele></ele><time>2018-6-13T20:56:47Z</time></trkpt>
<trkpt lat="46.21442" lon="7.43129"><ele></ele><time>2018-6-13T20:56:50Z</time></trkpt>
<trkpt lat="46.21437" lon="7.43102"><ele></ele><time>2018-6-13T20:56:53Z</time></trkpt>
<trkpt lat="46.21431" lon="7.43093"><ele></ele><time>2018-6-13T20:56:56Z</time></trkpt>
<trkpt lat="46.21412" lon="7.43093"><ele></ele><time>2018-6-13T20:56:59Z</time></trkpt>
<trkpt lat="46.21394" lon="7.43096"><ele></ele><time>2018-6-13T20:57:2Z</time></trkpt>
<trkpt lat="46.21377" lon="7.43109"><ele></ele><time>2018-6-13T20:57:5Z</time></trkpt>
<trkpt lat="46.21365" lon="7.43124"><ele></ele><time>2018-6-13T20:57:8Z</time></trkpt>
<trkpt lat="46.21349" lon="7.43147"><ele></ele><time>2018-6-13T20:57:11Z</time></trkpt>
<trkpt lat="46.21336" lon="7.43165"><ele></ele><time>2018-6-13T20:57:14Z</time></trkpt>
<trkpt lat="46.21321" lon="7.43181"><ele></ele><time>2018-6-13T20:57:17Z</time></trkpt>
<trkpt lat="46.21306" lon="7.43199"><ele></ele><time>2018-6-13T20:57:20Z</time></trkpt>
<trkpt lat="46.2129" lon="7.43216"><ele></ele><time>2018-6-13T20:57:23Z</time></trkpt>
<trkpt lat="46.21275" lon="7.43236"><ele></ele><time>2018-6-13T20:57:26Z</time></trkpt>
<trkpt lat="46.21264" lon="7.43252"><ele></ele><time>2018-6-13T20:57:29Z</time></trkpt>
<trkpt lat="46.21247" lon="7.43282"><ele></ele><time>2018-6-13T20:57:32Z</time></trkpt>
<trkpt lat="46.21236" lon="7.43303"><ele></ele><time>2018-6-13T20:57:35Z</time></trkpt>
<trkpt lat="46.21221" lon="7.43324"><ele></ele><time>2018-6-13T20:57:38Z</time></trkpt>
<trkpt lat="46.21202" lon="7.4334"><ele></ele><time>2018-6-13T20:57:41Z</time></trkpt>
<trkpt lat="46.21182" lon="7.43349"><ele></ele><time>2018-6-13T20:57:44Z</time></trkpt>
<trkpt lat="46.21172" lon="7.43352"><ele></ele><time>2018-6-13T20:57:47Z</time></trkpt>
<trkpt lat="46.21153" lon="7.4336"><ele></ele><time>2018-6-13T20:57:50Z</time></trkpt>
<trkpt lat="46.21135" lon="7.4337"><ele></ele><time>2018-6-13T20:57:53Z</time></trkpt>
<trkpt lat="46.21119" lon="7.43382"><ele></ele><time>2018-6-13T20:57:56Z</time></trkpt>
<trkpt lat="46.21102" lon="7.43397"><ele></ele><time>2018-6-13T20:57:59Z</time></trkpt>
<trkpt lat="46.21088" lon="7.43415"><ele></ele><time>2018-6-13T20:58:2Z</time></trkpt>
<trkpt lat="46.2107" lon="7.43438"><ele></ele><time>2018-6-13T20:58:5Z</time></trkpt>
<trkpt lat="46.21065" lon="7.43431"><ele></ele><time>2018-6-13T20:58:8Z</time></trkpt>
<trkpt lat="46.21066" lon="7.43423"><ele></ele><time>2018-6-13T20:58:11Z</time></trkpt>
<trkpt lat="46.21075" lon="7.4341"><ele></ele><time>2018-6-13T20:58:14Z</time></trkpt>
<trkpt lat="46.21085" lon="7.43395"><ele></ele><time>2018-6-13T20:58:17Z</time></trkpt>
<trkpt lat="46.21098" lon="7.43365"><ele></ele><time>2018-6-13T20:58:20Z</time></trkpt>
<trkpt lat="46.21108" lon="7.43343"><ele></ele><time>2018-6-13T20:58:23Z</time></trkpt>
<trkpt lat="46.21123" lon="7.43325"><ele></ele><time>2018-6-13T20:58:26Z</time></trkpt>
<trkpt lat="46.21139" lon="7.43308"><ele></ele><time>2018-6-13T20:58:29Z</time></trkpt>
<trkpt lat="46.21155" lon="7.43293"><ele></ele><time>2018-6-13T20:58:32Z</time></trkpt>
<trkpt lat="46.2117" lon="7.43278"><ele></ele><time>2018-6-13T20:58:35Z</time></trkpt>
<trkpt lat="46.21189" lon="7.43258"><ele></ele><time>2018-6-13T20:58:38Z</time></trkpt>
<trkpt lat="46.21206" lon="7.43238"><ele></ele><time>2018-6-13T20:58:41Z</time></trkpt>
<trkpt lat="46.21221" lon="7.43218"><ele></ele><time>2018-6-13T20:58:44Z</time></trkpt>
<trkpt lat="46.21231" lon="7.43204"><ele></ele><time>2018-6-13T20:58:47Z</time></trkpt>
<trkpt lat="46.21237" lon="7.43196"><ele></ele><time>2018-6-13T20:58:50Z</time></trkpt>
<trkpt lat="46.21241" lon="7.43189"><ele></ele><time>2018-6-13T20:58:53Z</time></trkpt>
<trkpt lat="46.2125" lon="7.43177"><ele></ele><time>2018-6-13T20:58:56Z</time></trkpt>
<trkpt lat="46.21264" lon="7.4316"><ele></ele><time>2018-6-13T20:58:59Z</time></trkpt>
<trkpt lat="46.2128" lon="7.43136"><ele></ele><time>2018-6-13T20:59:2Z</time></trkpt>
<trkpt lat="46.21287" lon="7.43126"><ele></ele><time>2018-6-13T20:59:5Z</time></trkpt>
<trkpt lat="46.213" lon="7.43103"><ele></ele><time>2018-6-13T20:59:8Z</time></trkpt>
<trkpt lat="46.21314" lon="7.43078"><ele></ele><time>2018-6-13T20:59:11Z</time></trkpt>
<trkpt lat="46.21318" lon="7.43072"><ele></ele><time>2018-6-13T20:59:14Z</time></trkpt>
<trkpt lat="46.21332" lon="7.43046"><ele></ele><time>2018-6-13T20:59:17Z</time></trkpt>
<trkpt lat="46.21346" lon="7.43027"><ele></ele><time>2018-6-13T20:59:20Z</time></trkpt>
<trkpt lat="46.21352" lon="7.4302"><ele></ele><time>2018-6-13T20:59:23Z</time></trkpt>
<trkpt lat="46.21355" lon="7.43016"><ele></ele><time>2018-6-13T20:59:26Z</time></trkpt>
<trkpt lat="46.21372" lon="7.43003"><ele></ele><time>2018-6-13T20:59:29Z</time></trkpt>
<trkpt lat="46.2138" lon="7.42998"><ele></ele><time>2018-6-13T20:59:32Z</time></trkpt>
<trkpt lat="46.21399" lon="7.42993"><ele></ele><time>2018-6-13T20:59:35Z</time></trkpt>
<trkpt lat="46.21421" lon="7.42994"><ele></ele><time>2018-6-13T20:59:38Z</time></trkpt>
<trkpt lat="46.2144" lon="7.42998"><ele></ele><time>2018-6-13T20:59:41Z</time></trkpt>
<trkpt lat="46.21464" lon="7.43005"><ele></ele><time>2018-6-13T20:59:44Z</time></trkpt>
<trkpt lat="46.21488" lon="7.43014"><ele></ele><time>2018-6-13T20:59:47Z</time></trkpt>
<trkpt lat="46.21507" lon="7.43019"><ele></ele><time>2018-6-13T20:59:50Z</time></trkpt>
<trkpt lat="46.21498" lon="7.43"><ele></ele><time>2018-6-13T20:59:53Z</time></trkpt>
<trkpt lat="46.21492" lon="7.42998"><ele></ele><time>2018-6-13T20:59:56Z</time></trkpt>
<trkpt lat="46.21487" lon="7.42995"><ele></ele><time>2018-6-13T20:59:59Z</time></trkpt>
<trkpt lat="46.2149" lon="7.42986"><ele></ele><time>2018-6-13T21:0:2Z</time></trkpt>
<trkpt lat="46.21504" lon="7.42992"><ele></ele><time>2018-6-13T21:0:5Z</time></trkpt>
<trkpt lat="46.21524" lon="7.43001"><ele></ele><time>2018-6-13T21:0:8Z</time></trkpt>
<trkpt lat="46.21531" lon="7.43004"><ele></ele><time>2018-6-13T21:0:11Z</time></trkpt>
<trkpt lat="46.21553" lon="7.43012"><ele></ele><time>2018-6-13T21:0:14Z</time></trkpt>
<trkpt lat="46.21575" lon="7.43027"><ele></ele><time>2018-6-13T21:0:17Z</time></trkpt>
<trkpt lat="46.21591" lon="7.4304"><ele></ele><time>2018-6-13T21:0:20Z</time></trkpt>
<trkpt lat="46.21614" lon="7.43058"><ele></ele><time>2018-6-13T21:0:23Z</time></trkpt>
<trkpt lat="46.21622" lon="7.43062"><ele></ele><time>2018-6-13T21:0:26Z</time></trkpt>
<trkpt lat="46.21647" lon="7.43064"><ele></ele><time>2018-6-13T21:0:29Z</time></trkpt>
<trkpt lat="46.21654" lon="7.43063"><ele></ele><time>2018-6-13T21:0:32Z</time></trkpt>
<trkpt lat="46.21667" lon="7.43059"><ele></ele><time>2018-6-13T21:0:35Z</time></trkpt>
<trkpt lat="46.21681" lon="7.43047"><ele></ele><time>2018-6-13T21:0:38Z</time></trkpt>
<trkpt lat="46.21688" lon="7.43045"><ele></ele><time>2018-6-13T21:0:41Z</time></trkpt>
<trkpt lat="46.21703" lon="7.43048"><ele></ele><time>2018-6-13T21:0:44Z</time></trkpt>
<trkpt lat="46.21725" lon="7.43051"><ele></ele><time>2018-6-13T21:0:47Z</time></trkpt>
<trkpt lat="46.21743" lon="7.43051"><ele></ele><time>2018-6-13T21:0:50Z</time></trkpt>
<trkpt lat="46.21749" lon="7.43051"><ele></ele><time>2018-6-13T21:0:53Z</time></trkpt>
<trkpt lat="46.21762" lon="7.43051"><ele></ele><time>2018-6-13T21:0:56Z</time></trkpt>
<trkpt lat="46.21781" lon="7.43049"><ele></ele><time>2018-6-13T21:0:59Z</time></trkpt>
<trkpt lat="46.21794" lon="7.43048"><ele></ele><time>2018-6-13T21:1:2Z</time></trkpt>
<trkpt lat="46.2181" lon="7.4305"><ele></ele><time>2018-6-13T21:1:5Z</time></trkpt>
<trkpt lat="46.21819" lon="7.43051"><ele></ele><time>2018-6-13T21:1:8Z</time></trkpt>
<trkpt lat="46.21837" lon="7.43045"><ele></ele><time>2018-6-13T21:1:11Z</time></trkpt>
<trkpt lat="46.21859" lon="7.43037"><ele></ele><time>2018-6-13T21:1:14Z</time></trkpt>
<trkpt lat="46.21881" lon="7.43039"><ele></ele><time>2018-6-13T21:1:17Z</time></trkpt>
<trkpt lat="46.219" lon="7.4304"><ele></ele><time>2018-6-13T21:1:20Z</time></trkpt>
<trkpt lat="46.21905" lon="7.43039"><ele></ele><time>2018-6-13T21:1:23Z</time></trkpt>
<trkpt lat="46.21918" lon="7.43034"><ele></ele><time>2018-6-13T21:1:26Z</time></trkpt>
<trkpt lat="46.21937" lon="7.43019"><ele></ele><time>2018-6-13T21:1:29Z</time></trkpt>
<trkpt lat="46.21947" lon="7.43009"><ele></ele><time>2018-6-13T21:1:32Z</time></trkpt>
<trkpt lat="46.21962" lon="7.43003"><ele></ele><time>2018-6-13T21:1:35Z</time></trkpt>
<trkpt lat="46.21965" lon="7.43"><ele></ele><time>2018-6-13T21:1:38Z</time></trkpt>
<trkpt lat="46.21967" lon="7.42998"><ele></ele><time>2018-6-13T21:1:41Z</time></trkpt>
<trkpt lat="46.2197" lon="7.42994"><ele></ele><time>2018-6-13T21:1:44Z</time></trkpt>
<trkpt lat="46.21979" lon="7.4298"><ele></ele><time>2018-6-13T21:1:47Z</time></trkpt>
<trkpt lat="46.21984" lon="7.42971"><ele></ele><time>2018-6-13T21:1:50Z</time></trkpt>
<trkpt lat="46.21988" lon="7.42964"><ele></ele><time>2018-6-13T21:1:53Z</time></trkpt>
<trkpt lat="46.21988" lon="7.42963"><ele></ele><time>2018-6-13T21:1:56Z</time></trkpt>
<trkpt lat="46.21991" lon="7.42957"><ele></ele><time>2018-6-13T21:1:59Z</time></trkpt>
<trkpt lat="46.21994" lon="7.42951"><ele></ele><time>2018-6-13T21:2:2Z</time></trkpt>
<trkpt lat="46.21996" lon="7.42949"><ele></ele><time>2018-6-13T21:2:5Z</time></trkpt>
<trkpt lat="46.21999" lon="7.42945"><ele></ele><time>2018-6-13T21:2:8Z</time></trkpt>
<trkpt lat="46.22001" lon="7.42943"><ele></ele><time>2018-6-13T21:2:11Z</time></trkpt>
<trkpt lat="46.22004" lon="7.4294"><ele></ele><time>2018-6-13T21:2:14Z</time></trkpt>
<trkpt lat="46.22019" lon="7.42924"><ele></ele><time>2018-6-13T21:2:17Z</time></trkpt>
<trkpt lat="46.22039" lon="7.42921"><ele></ele><time>2018-6-13T21:2:20Z</time></trkpt>
<trkpt lat="46.22057" lon="7.42931"><ele></ele><time>2018-6-13T21:2:23Z</time></trkpt>
<trkpt lat="46.22062" lon="7.42933"><ele></ele><time>2018-6-13T21:2:26Z</time></trkpt>
<trkpt lat="46.22082" lon="7.42935"><ele></ele><time>2018-6-13T21:2:29Z</time></trkpt>
<trkpt lat="46.22092" lon="7.42936"><ele></ele><time>2018-6-13T21:2:32Z</time></trkpt>
<trkpt lat="46.22101" lon="7.42937"><ele></ele><time>2018-6-13T21:2:35Z</time></trkpt>
<trkpt lat="46.2212" lon="7.42932"><ele></ele><time>2018-6-13T21:2:38Z</time></trkpt>
<trkpt lat="46.22125" lon="7.42929"><ele></ele><time>2018-6-13T21:2:41Z</time></trkpt>
<trkpt lat="46.22146" lon="7.42927"><ele></ele><time>2018-6-13T21:2:44Z</time></trkpt>
<trkpt lat="46.22165" lon="7.42932"><ele></ele><time>2018-6-13T21:2:47Z</time></trkpt>
<trkpt lat="46.22183" lon="7.42934"><ele></ele><time>2018-6-13T21:2:50Z</time></trkpt>
<trkpt lat="46.22213" lon="7.42928"><ele></ele><time>2018-6-13T21:2:53Z</time></trkpt>
<trkpt lat="46.22228" lon="7.42913"><ele></ele><time>2018-6-13T21:2:56Z</time></trkpt>
<trkpt lat="46.22236" lon="7.42908"><ele></ele><time>2018-6-13T21:2:59Z</time></trkpt>
<trkpt lat="46.2225" lon="7.429"><ele></ele><time>2018-6-13T21:3:2Z</time></trkpt>
<trkpt lat="46.22269" lon="7.42889"><ele></ele><time>2018-6-13T21:3:5Z</time></trkpt>
<trkpt lat="46.22286" lon="7.42872"><ele></ele><time>2018-6-13T21:3:8Z</time></trkpt>
<trkpt lat="46.22304" lon="7.42865"><ele></ele><time>2018-6-13T21:3:11Z</time></trkpt>
<trkpt lat="46.22322" lon="7.42855"><ele></ele><time>2018-6-13T21:3:14Z</time></trkpt>
<trkpt lat="46.22342" lon="7.42844"><ele></ele><time>2018-6-13T21:3:17Z</time></trkpt>
<trkpt lat="46.22362" lon="7.42831"><ele></ele><time>2018-6-13T21:3:20Z</time></trkpt>
<trkpt lat="46.22376" lon="7.42818"><ele></ele><time>2018-6-13T21:3:23Z</time></trkpt>
<trkpt lat="46.22386" lon="7.42808"><ele></ele><time>2018-6-13T21:3:26Z</time></trkpt>
<trkpt lat="46.22404" lon="7.42793"><ele></ele><time>2018-6-13T21:3:29Z</time></trkpt>
<trkpt lat="46.22412" lon="7.42788"><ele></ele><time>2018-6-13T21:3:32Z</time></trkpt>
<trkpt lat="46.22431" lon="7.4279"><ele></ele><time>2018-6-13T21:3:35Z</time></trkpt>
<trkpt lat="46.22451" lon="7.42798"><ele></ele><time>2018-6-13T21:3:38Z</time></trkpt>
<trkpt lat="46.22473" lon="7.42798"><ele></ele><time>2018-6-13T21:3:41Z</time></trkpt>
<trkpt lat="46.22491" lon="7.42791"><ele></ele><time>2018-6-13T21:3:44Z</time></trkpt>
<trkpt lat="46.22506" lon="7.42777"><ele></ele><time>2018-6-13T21:3:47Z</time></trkpt>
<trkpt lat="46.22526" lon="7.42771"><ele></ele><time>2018-6-13T21:3:50Z</time></trkpt>
<trkpt lat="46.22531" lon="7.42773"><ele></ele><time>2018-6-13T21:3:53Z</time></trkpt>
<trkpt lat="46.22536" lon="7.42776"><ele></ele><time>2018-6-13T21:3:56Z</time></trkpt>
<trkpt lat="46.22554" lon="7.42785"><ele></ele><time>2018-6-13T21:3:59Z</time></trkpt>
<trkpt lat="46.22565" lon="7.42788"><ele></ele><time>2018-6-13T21:4:2Z</time></trkpt>
<trkpt lat="46.22571" lon="7.42789"><ele></ele><time>2018-6-13T21:4:5Z</time></trkpt>
<trkpt lat="46.22581" lon="7.42792"><ele></ele><time>2018-6-13T21:4:8Z</time></trkpt>
<trkpt lat="46.22589" lon="7.42799"><ele></ele><time>2018-6-13T21:4:11Z</time></trkpt>
<trkpt lat="46.22591" lon="7.42801"><ele></ele><time>2018-6-13T21:4:14Z</time></trkpt>
<trkpt lat="46.22593" lon="7.42803"><ele></ele><time>2018-6-13T21:4:17Z</time></trkpt>
<trkpt lat="46.22597" lon="7.42812"><ele></ele><time>2018-6-13T21:4:20Z</time></trkpt>
<trkpt lat="46.22602" lon="7.4282"><ele></ele><time>2018-6-13T21:4:23Z</time></trkpt>
<trkpt lat="46.22604" lon="7.42823"><ele></ele><time>2018-6-13T21:4:26Z</time></trkpt>
<trkpt lat="46.22613" lon="7.42838"><ele></ele><time>2018-6-13T21:4:29Z</time></trkpt>
<trkpt lat="46.22623" lon="7.4286"><ele></ele><time>2018-6-13T21:4:32Z</time></trkpt>
<trkpt lat="46.22621" lon="7.42865"><ele></ele><time>2018-6-13T21:4:35Z</time></trkpt>
<trkpt lat="46.22602" lon="7.42853"><ele></ele><time>2018-6-13T21:4:38Z</time></trkpt>
<trkpt lat="46.22584" lon="7.42851"><ele></ele><time>2018-6-13T21:4:41Z</time></trkpt>
<trkpt lat="46.22566" lon="7.42856"><ele></ele><time>2018-6-13T21:4:44Z</time></trkpt>
<trkpt lat="46.2255" lon="7.42868"><ele></ele><time>2018-6-13T21:4:47Z</time></trkpt>
<trkpt lat="46.22546" lon="7.42873"><ele></ele><time>2018-6-13T21:4:50Z</time></trkpt>
<trkpt lat="46.22543" lon="7.42874"><ele></ele><time>2018-6-13T21:4:53Z</time></trkpt>
<trkpt lat="46.22525" lon="7.42873"><ele></ele><time>2018-6-13T21:4:56Z</time></trkpt>
<trkpt lat="46.22505" lon="7.42876"><ele></ele><time>2018-6-13T21:4:59Z</time></trkpt>
<trkpt lat="46.22495" lon="7.4288"><ele></ele><time>2018-6-13T21:5:2Z</time></trkpt>
<trkpt lat="46.22486" lon="7.42883"><ele></ele><time>2018-6-13T21:5:5Z</time></trkpt>
<trkpt lat="46.22476" lon="7.42887"><ele></ele><time>2018-6-13T21:5:8Z</time></trkpt>
<trkpt lat="46.22457" lon="7.4289"><ele></ele><time>2018-6-13T21:5:11Z</time></trkpt>
<trkpt lat="46.22451" lon="7.42892"><ele></ele><time>2018-6-13T21:5:14Z</time></trkpt>
<trkpt lat="46.22449" lon="7.42891"><ele></ele><time>2018-6-13T21:5:17Z</time></trkpt>
<trkpt lat="46.22442" lon="7.42889"><ele></ele><time>2018-6-13T21:5:20Z</time></trkpt>
<trkpt lat="46.22424" lon="7.42887"><ele></ele><time>2018-6-13T21:5:23Z</time></trkpt>
<trkpt lat="46.22406" lon="7.42884"><ele></ele><time>2018-6-13T21:5:26Z</time></trkpt>
<trkpt lat="46.22385" lon="7.42896"><ele></ele><time>2018-6-13T21:5:29Z</time></trkpt>
<trkpt lat="46.2237" lon="7.42911"><ele></ele><time>2018-6-13T21:5:32Z</time></trkpt>
<trkpt lat="46.22355" lon="7.42926"><ele></ele><time>2018-6-13T21:5:35Z</time></trkpt>
<trkpt lat="46.22338" lon="7.42939"><ele></ele><time>2018-6-13T21:5:38Z</time></trkpt>
<trkpt lat="46.22324" lon="7.42951"><ele></ele><time>2018-6-13T21:5:41Z</time></trkpt>
<trkpt lat="46.22323" lon="7.42953"><ele></ele><time>2018-6-13T21:5:44Z</time></trkpt>
<trkpt lat="46.22318" lon="7.42957"><ele></ele><time>2018-6-13T21:5:47Z</time></trkpt>
<trkpt lat="46.22305" lon="7.4297"><ele></ele><time>2018-6-13T21:5:50Z</time></trkpt>
<trkpt lat="46.22289" lon="7.42984"><ele></ele><time>2018-6-13T21:5:53Z</time></trkpt>
<trkpt lat="46.22278" lon="7.42994"><ele></ele><time>2018-6-13T21:5:56Z</time></trkpt>
<trkpt lat="46.2226" lon="7.42998"><ele></ele><time>2018-6-13T21:5:59Z</time></trkpt>
<trkpt lat="46.22243" lon="7.43009"><ele></ele><time>2018-6-13T21:6:2Z</time></trkpt>
<trkpt lat="46.22234" lon="7.43019"><ele></ele><time>2018-6-13T21:6:5Z</time></trkpt>
<trkpt lat="46.22215" lon="7.43027"><ele></ele><time>2018-6-13T21:6:8Z</time></trkpt>
<trkpt lat="46.22196" lon="7.43036"><ele></ele><time>2018-6-13T21:6:11Z</time></trkpt>
<trkpt lat="46.22175" lon="7.43033"><ele></ele><time>2018-6-13T21:6:14Z</time></trkpt>
<trkpt lat="46.22157" lon="7.43042"><ele></ele><time>2018-6-13T21:6:17Z</time></trkpt>
<trkpt lat="46.22138" lon="7.43054"><ele></ele><time>2018-6-13T21:6:20Z</time></trkpt>
<trkpt lat="46.2212" lon="7.43051"><ele></ele><time>2018-6-13T21:6:23Z</time></trkpt>
<trkpt lat="46.22098" lon="7.43043"><ele></ele><time>2018-6-13T21:6:26Z</time></trkpt>
<trkpt lat="46.22075" lon="7.43042"><ele></ele><time>2018-6-13T21:6:29Z</time></trkpt>
<trkpt lat="46.2207" lon="7.43043"><ele></ele><time>2018-6-13T21:6:32Z</time></trkpt>
<trkpt lat="46.2206" lon="7.43046"><ele></ele><time>2018-6-13T21:6:35Z</time></trkpt>
<trkpt lat="46.22054" lon="7.43046"><ele></ele><time>2018-6-13T21:6:38Z</time></trkpt>
<trkpt lat="46.22052" lon="7.43046"><ele></ele><time>2018-6-13T21:6:41Z</time></trkpt>
<trkpt lat="46.22052" lon="7.43046"><ele></ele><time>2018-6-13T21:6:44Z</time></trkpt>
<trkpt lat="46.22051" lon="7.43045"><ele></ele><time>2018-6-13T21:6:47Z</time></trkpt>
<trkpt lat="46.22071" lon="7.43042"><ele></ele><time>2018-6-13T21:6:50Z</time></trkpt>
<trkpt lat="46.22089" lon="7.43043"><ele></ele><time>2018-6-13T21:6:53Z</time></trkpt>
<trkpt lat="46.22105" lon="7.43047"><ele></ele><time>2018-6-13T21:6:56Z</time></trkpt>
<trkpt lat="46.22124" lon="7.43055"><ele></ele><time>2018-6-13T21:6:59Z</time></trkpt>
<trkpt lat="46.22143" lon="7.43055"><ele></ele><time>2018-6-13T21:7:2Z</time></trkpt>
<trkpt lat="46.22161" lon="7.43045"><ele></ele><time>2018-6-13T21:7:5Z</time></trkpt>
<trkpt lat="46.2217" lon="7.4304"><ele></ele><time>2018-6-13T21:7:8Z</time></trkpt>
<trkpt lat="46.22188" lon="7.43039"><ele></ele><time>2018-6-13T21:7:11Z</time></trkpt>
<trkpt lat="46.22211" lon="7.43035"><ele></ele><time>2018-6-13T21:7:14Z</time></trkpt>
<trkpt lat="46.22229" lon="7.43028"><ele></ele><time>2018-6-13T21:7:17Z</time></trkpt>
<trkpt lat="46.22245" lon="7.43011"><ele></ele><time>2018-6-13T21:7:20Z</time></trkpt>
<trkpt lat="46.22259" lon="7.43003"><ele></ele><time>2018-6-13T21:7:23Z</time></trkpt>
<trkpt lat="46.22281" lon="7.42997"><ele></ele><time>2018-6-13T21:7:26Z</time></trkpt>
<trkpt lat="46.22295" lon="7.4298"><ele></ele><time>2018-6-13T21:7:29Z</time></trkpt>
<trkpt lat="46.22312" lon="7.42962"><ele></ele><time>2018-6-13T21:7:32Z</time></trkpt>
<trkpt lat="46.2233" lon="7.42941"><ele></ele><time>2018-6-13T21:7:35Z</time></trkpt>
<trkpt lat="46.22336" lon="7.42936"><ele></ele><time>2018-6-13T21:7:38Z</time></trkpt>
<trkpt lat="46.22356" lon="7.42922"><ele></ele><time>2018-6-13T21:7:41Z</time></trkpt>
<trkpt lat="46.22375" lon="7.42904"><ele></ele><time>2018-6-13T21:7:44Z</time></trkpt>
<trkpt lat="46.2239" lon="7.42893"><ele></ele><time>2018-6-13T21:7:47Z</time></trkpt>
<trkpt lat="46.2241" lon="7.429"><ele></ele><time>2018-6-13T21:7:50Z</time></trkpt>
<trkpt lat="46.22419" lon="7.42906"><ele></ele><time>2018-6-13T21:7:53Z</time></trkpt>
<trkpt lat="46.22421" lon="7.42907"><ele></ele><time>2018-6-13T21:7:56Z</time></trkpt>
<trkpt lat="46.22437" lon="7.42918"><ele></ele><time>2018-6-13T21:7:59Z</time></trkpt>
<trkpt lat="46.22442" lon="7.42923"><ele></ele><time>2018-6-13T21:8:2Z</time></trkpt>
<trkpt lat="46.22454" lon="7.42939"><ele></ele><time>2018-6-13T21:8:5Z</time></trkpt>
<trkpt lat="46.22459" lon="7.42946"><ele></ele><time>2018-6-13T21:8:8Z</time></trkpt>
<trkpt lat="46.22462" lon="7.42954"><ele></ele><time>2018-6-13T21:8:11Z</time></trkpt>
<trkpt lat="46.22463" lon="7.42958"><ele></ele><time>2018-6-13T21:8:14Z</time></trkpt>
<trkpt lat="46.22465" lon="7.42961"><ele></ele><time>2018-6-13T21:8:17Z</time></trkpt>
<trkpt lat="46.22467" lon="7.42963"><ele></ele><time>2018-6-13T21:8:20Z</time></trkpt>
<trkpt lat="46.22471" lon="7.42971"><ele></ele><time>2018-6-13T21:8:23Z</time></trkpt>
<trkpt lat="46.22483" lon="7.43002"><ele></ele><time>2018-6-13T21:8:26Z</time></trkpt>
<trkpt lat="46.22491" lon="7.43013"><ele></ele><time>2018-6-13T21:8:29Z</time></trkpt>
<trkpt lat="46.225" lon="7.43026"><ele></ele><time>2018-6-13T21:8:32Z</time></trkpt>
<trkpt lat="46.22504" lon="7.43033"><ele></ele><time>2018-6-13T21:8:35Z</time></trkpt>
<trkpt lat="46.22515" lon="7.43054"><ele></ele><time>2018-6-13T21:8:38Z</time></trkpt>
<trkpt lat="46.22521" lon="7.43064"><ele></ele><time>2018-6-13T21:8:41Z</time></trkpt>
<trkpt lat="46.2253" lon="7.43072"><ele></ele><time>2018-6-13T21:8:44Z</time></trkpt>
<trkpt lat="46.22548" lon="7.43074"><ele></ele><time>2018-6-13T21:8:47Z</time></trkpt>
<trkpt lat="46.22566" lon="7.43072"><ele></ele><time>2018-6-13T21:8:50Z</time></trkpt>
<trkpt lat="46.22582" lon="7.43084"><ele></ele><time>2018-6-13T21:8:53Z</time></trkpt>
<trkpt lat="46.22595" lon="7.43104"><ele></ele><time>2018-6-13T21:8:56Z</time></trkpt>
<trkpt lat="46.22601" lon="7.43117"><ele></ele><time>2018-6-13T21:8:59Z</time></trkpt>
<trkpt lat="46.22608" lon="7.43131"><ele></ele><time>2018-6-13T21:9:2Z</time></trkpt>
<trkpt lat="46.22616" lon="7.43159"><ele></ele><time>2018-6-13T21:9:5Z</time></trkpt>
<trkpt lat="46.22624" lon="7.43181"><ele></ele><time>2018-6-13T21:9:8Z</time></trkpt>
<trkpt lat="46.22635" lon="7.43204"><ele></ele><time>2018-6-13T21:9:11Z</time></trkpt>
<trkpt lat="46.22646" lon="7.43227"><ele></ele><time>2018-6-13T21:9:14Z</time></trkpt>
<trkpt lat="46.22657" lon="7.43251"><ele></ele><time>2018-6-13T21:9:17Z</time></trkpt>
<trkpt lat="46.22667" lon="7.43274"><ele></ele><time>2018-6-13T21:9:20Z</time></trkpt>
<trkpt lat="46.22675" lon="7.43298"><ele></ele><time>2018-6-13T21:9:23Z</time></trkpt>
<trkpt lat="46.22677" lon="7.4331"><ele></ele><time>2018-6-13T21:9:26Z</time></trkpt>
<trkpt lat="46.22682" lon="7.43333"><ele></ele><time>2018-6-13T21:9:29Z</time></trkpt>
<trkpt lat="46.22693" lon="7.43359"><ele></ele><time>2018-6-13T21:9:32Z</time></trkpt>
<trkpt lat="46.22699" lon="7.43375"><ele></ele><time>2018-6-13T21:9:35Z</time></trkpt>
<trkpt lat="46.22701" lon="7.4339"><ele></ele><time>2018-6-13T21:9:38Z</time></trkpt>
<trkpt lat="46.227" lon="7.43407"><ele></ele><time>2018-6-13T21:9:41Z</time></trkpt>
<trkpt lat="46.22699" lon="7.43412"><ele></ele><time>2018-6-13T21:9:44Z</time></trkpt>
<trkpt lat="46.22698" lon="7.43416"><ele></ele><time>2018-6-13T21:9:47Z</time></trkpt>
<trkpt lat="46.22688" lon="7.43442"><ele></ele><time>2018-6-13T21:9:50Z</time></trkpt>
<trkpt lat="46.22703" lon="7.43477"><ele></ele><time>2018-6-13T21:9:53Z</time></trkpt>
<trkpt lat="46.22714" lon="7.43499"><ele></ele><time>2018-6-13T21:9:56Z</time></trkpt>
<trkpt lat="46.22722" lon="7.43525"><ele></ele><time>2018-6-13T21:9:59Z</time></trkpt>
<trkpt lat="46.22722" lon="7.43552"><ele></ele><time>2018-6-13T21:10:2Z</time></trkpt>
<trkpt lat="46.22726" lon="7.43579"><ele></ele><time>2018-6-13T21:10:5Z</time></trkpt>
<trkpt lat="46.22729" lon="7.43607"><ele></ele><time>2018-6-13T21:10:8Z</time></trkpt>
<trkpt lat="46.22729" lon="7.43636"><ele></ele><time>2018-6-13T21:10:11Z</time></trkpt>
<trkpt lat="46.22729" lon="7.43665"><ele></ele><time>2018-6-13T21:10:14Z</time></trkpt>
<trkpt lat="46.22739" lon="7.43691"><ele></ele><time>2018-6-13T21:10:17Z</time></trkpt>
<trkpt lat="46.22749" lon="7.4371"><ele></ele><time>2018-6-13T21:10:20Z</time></trkpt>
<trkpt lat="46.22755" lon="7.4374"><ele></ele><time>2018-6-13T21:10:23Z</time></trkpt>
<trkpt lat="46.22756" lon="7.43758"><ele></ele><time>2018-6-13T21:10:26Z</time></trkpt>
<trkpt lat="46.22753" lon="7.43788"><ele></ele><time>2018-6-13T21:10:29Z</time></trkpt>
<trkpt lat="46.22751" lon="7.43817"><ele></ele><time>2018-6-13T21:10:32Z</time></trkpt>
<trkpt lat="46.22752" lon="7.43843"><ele></ele><time>2018-6-13T21:10:35Z</time></trkpt>
<trkpt lat="46.22753" lon="7.43871"><ele></ele><time>2018-6-13T21:10:38Z</time></trkpt>
<trkpt lat="46.22755" lon="7.43883"><ele></ele><time>2018-6-13T21:10:41Z</time></trkpt>
<trkpt lat="46.22761" lon="7.43907"><ele></ele><time>2018-6-13T21:10:44Z</time></trkpt>
<trkpt lat="46.22762" lon="7.43912"><ele></ele><time>2018-6-13T21:10:47Z</time></trkpt>
<trkpt lat="46.22767" lon="7.43941"><ele></ele><time>2018-6-13T21:10:50Z</time></trkpt>
<trkpt lat="46.22768" lon="7.43946"><ele></ele><time>2018-6-13T21:10:53Z</time></trkpt>
<trkpt lat="46.22769" lon="7.43976"><ele></ele><time>2018-6-13T21:10:56Z</time></trkpt>
<trkpt lat="46.2277" lon="7.43999"><ele></ele><time>2018-6-13T21:10:59Z</time></trkpt>
<trkpt lat="46.22773" lon="7.44029"><ele></ele><time>2018-6-13T21:11:2Z</time></trkpt>
<trkpt lat="46.22773" lon="7.44066"><ele></ele><time>2018-6-13T21:11:5Z</time></trkpt>
<trkpt lat="46.22772" lon="7.44094"><ele></ele><time>2018-6-13T21:11:8Z</time></trkpt>
<trkpt lat="46.22774" lon="7.44121"><ele></ele><time>2018-6-13T21:11:11Z</time></trkpt>
<trkpt lat="46.22777" lon="7.44149"><ele></ele><time>2018-6-13T21:11:14Z</time></trkpt>
<trkpt lat="46.22782" lon="7.44175"><ele></ele><time>2018-6-13T21:11:17Z</time></trkpt>
<trkpt lat="46.22783" lon="7.44201"><ele></ele><time>2018-6-13T21:11:20Z</time></trkpt>
<trkpt lat="46.22783" lon="7.44229"><ele></ele><time>2018-6-13T21:11:23Z</time></trkpt>
<trkpt lat="46.22782" lon="7.4426"><ele></ele><time>2018-6-13T21:11:26Z</time></trkpt>
<trkpt lat="46.22783" lon="7.44283"><ele></ele><time>2018-6-13T21:11:29Z</time></trkpt>
<trkpt lat="46.22782" lon="7.44289"><ele></ele><time>2018-6-13T21:11:32Z</time></trkpt>
<trkpt lat="46.22779" lon="7.44316"><ele></ele><time>2018-6-13T21:11:35Z</time></trkpt>
<trkpt lat="46.22781" lon="7.44344"><ele></ele><time>2018-6-13T21:11:38Z</time></trkpt>
<trkpt lat="46.2278" lon="7.44353"><ele></ele><time>2018-6-13T21:11:41Z</time></trkpt>
<trkpt lat="46.22778" lon="7.44373"><ele></ele><time>2018-6-13T21:11:44Z</time></trkpt>
<trkpt lat="46.22774" lon="7.444"><ele></ele><time>2018-6-13T21:11:47Z</time></trkpt>
<trkpt lat="46.22772" lon="7.44406"><ele></ele><time>2018-6-13T21:11:50Z</time></trkpt>
<trkpt lat="46.22764" lon="7.4443"><ele></ele><time>2018-6-13T21:11:53Z</time></trkpt>
<trkpt lat="46.22761" lon="7.4447"><ele></ele><time>2018-6-13T21:11:56Z</time></trkpt>
<trkpt lat="46.22764" lon="7.44489"><ele></ele><time>2018-6-13T21:11:59Z</time></trkpt>
<trkpt lat="46.22769" lon="7.44513"><ele></ele><time>2018-6-13T21:12:2Z</time></trkpt>
<trkpt lat="46.22779" lon="7.44532"><ele></ele><time>2018-6-13T21:12:5Z</time></trkpt>
<trkpt lat="46.22782" lon="7.44561"><ele></ele><time>2018-6-13T21:12:8Z</time></trkpt>
<trkpt lat="46.22785" lon="7.44592"><ele></ele><time>2018-6-13T21:12:11Z</time></trkpt>
<trkpt lat="46.22788" lon="7.44613"><ele></ele><time>2018-6-13T21:12:14Z</time></trkpt>
<trkpt lat="46.22791" lon="7.44624"><ele></ele><time>2018-6-13T21:12:17Z</time></trkpt>
<trkpt lat="46.22798" lon="7.44648"><ele></ele><time>2018-6-13T21:12:20Z</time></trkpt>
<trkpt lat="46.22802" lon="7.44676"><ele></ele><time>2018-6-13T21:12:23Z</time></trkpt>
<trkpt lat="46.22801" lon="7.44695"><ele></ele><time>2018-6-13T21:12:26Z</time></trkpt>
<trkpt lat="46.228" lon="7.44703"><ele></ele><time>2018-6-13T21:12:29Z</time></trkpt>
<trkpt lat="46.22804" lon="7.44731"><ele></ele><time>2018-6-13T21:12:32Z</time></trkpt>
<trkpt lat="46.22808" lon="7.44762"><ele></ele><time>2018-6-13T21:12:35Z</time></trkpt>
<trkpt lat="46.22811" lon="7.44776"><ele></ele><time>2018-6-13T21:12:38Z</time></trkpt>
<trkpt lat="46.22813" lon="7.44786"><ele></ele><time>2018-6-13T21:12:41Z</time></trkpt>
<trkpt lat="46.22813" lon="7.44792"><ele></ele><time>2018-6-13T21:12:44Z</time></trkpt>
<trkpt lat="46.22811" lon="7.44799"><ele></ele><time>2018-6-13T21:12:47Z</time></trkpt>
<trkpt lat="46.22823" lon="7.4483"><ele></ele><time>2018-6-13T21:12:50Z</time></trkpt>
<trkpt lat="46.22827" lon="7.44857"><ele></ele><time>2018-6-13T21:12:53Z</time></trkpt>
<trkpt lat="46.22827" lon="7.44859"><ele></ele><time>2018-6-13T21:12:56Z</time></trkpt>
<trkpt lat="46.22828" lon="7.44885"><ele></ele><time>2018-6-13T21:12:59Z</time></trkpt>
<trkpt lat="46.2282" lon="7.44909"><ele></ele><time>2018-6-13T21:13:2Z</time></trkpt>
<trkpt lat="46.22816" lon="7.44926"><ele></ele><time>2018-6-13T21:13:5Z</time></trkpt>
<trkpt lat="46.22811" lon="7.44961"><ele></ele><time>2018-6-13T21:13:8Z</time></trkpt>
<trkpt lat="46.22805" lon="7.44987"><ele></ele><time>2018-6-13T21:13:11Z</time></trkpt>
<trkpt lat="46.22797" lon="7.45012"><ele></ele><time>2018-6-13T21:13:14Z</time></trkpt>
<trkpt lat="46.22793" lon="7.45039"><ele></ele><time>2018-6-13T21:13:17Z</time></trkpt>
<trkpt lat="46.22798" lon="7.45065"><ele></ele><time>2018-6-13T21:13:20Z</time></trkpt>
<trkpt lat="46.22797" lon="7.45085"><ele></ele><time>2018-6-13T21:13:23Z</time></trkpt>
<trkpt lat="46.22791" lon="7.45107"><ele></ele><time>2018-6-13T21:13:26Z</time></trkpt>
<trkpt lat="46.22781" lon="7.4513"><ele></ele><time>2018-6-13T21:13:29Z</time></trkpt>
<trkpt lat="46.22772" lon="7.45154"><ele></ele><time>2018-6-13T21:13:32Z</time></trkpt>
<trkpt lat="46.22764" lon="7.45174"><ele></ele><time>2018-6-13T21:13:35Z</time></trkpt>
<trkpt lat="46.22755" lon="7.45198"><ele></ele><time>2018-6-13T21:13:38Z</time></trkpt>
<trkpt lat="46.22749" lon="7.4521"><ele></ele><time>2018-6-13T21:13:41Z</time></trkpt>
<trkpt lat="46.2274" lon="7.45233"><ele></ele><time>2018-6-13T21:13:44Z</time></trkpt>
<trkpt lat="46.22733" lon="7.45258"><ele></ele><time>2018-6-13T21:13:47Z</time></trkpt>
<trkpt lat="46.22724" lon="7.45277"><ele></ele><time>2018-6-13T21:13:50Z</time></trkpt>
<trkpt lat="46.22711" lon="7.45297"><ele></ele><time>2018-6-13T21:13:53Z</time></trkpt>
<trkpt lat="46.22701" lon="7.45318"><ele></ele><time>2018-6-13T21:13:56Z</time></trkpt>
<trkpt lat="46.22699" lon="7.45345"><ele></ele><time>2018-6-13T21:13:59Z</time></trkpt>
<trkpt lat="46.22704" lon="7.45371"><ele></ele><time>2018-6-13T21:14:2Z</time></trkpt>
<trkpt lat="46.22706" lon="7.45398"><ele></ele><time>2018-6-13T21:14:5Z</time></trkpt>
<trkpt lat="46.22701" lon="7.45423"><ele></ele><time>2018-6-13T21:14:8Z</time></trkpt>
<trkpt lat="46.22695" lon="7.45449"><ele></ele><time>2018-6-13T21:14:11Z</time></trkpt>
<trkpt lat="46.22687" lon="7.45474"><ele></ele><time>2018-6-13T21:14:14Z</time></trkpt>
<trkpt lat="46.22679" lon="7.45496"><ele></ele><time>2018-6-13T21:14:17Z</time></trkpt>
<trkpt lat="46.22669" lon="7.45521"><ele></ele><time>2018-6-13T21:14:20Z</time></trkpt>
<trkpt lat="46.22659" lon="7.45545"><ele></ele><time>2018-6-13T21:14:23Z</time></trkpt>
<trkpt lat="46.22656" lon="7.45555"><ele></ele><time>2018-6-13T21:14:26Z</time></trkpt>
<trkpt lat="46.22648" lon="7.45577"><ele></ele><time>2018-6-13T21:14:29Z</time></trkpt>
<trkpt lat="46.2264" lon="7.456"><ele></ele><time>2018-6-13T21:14:32Z</time></trkpt>
<trkpt lat="46.22635" lon="7.45626"><ele></ele><time>2018-6-13T21:14:35Z</time></trkpt>
<trkpt lat="46.2263" lon="7.45664"><ele></ele><time>2018-6-13T21:14:38Z</time></trkpt>
<trkpt lat="46.22628" lon="7.45693"><ele></ele><time>2018-6-13T21:14:41Z</time></trkpt>
<trkpt lat="46.22629" lon="7.45705"><ele></ele><time>2018-6-13T21:14:44Z</time></trkpt>
<trkpt lat="46.2263" lon="7.45734"><ele></ele><time>2018-6-13T21:14:47Z</time></trkpt>
<trkpt lat="46.22631" lon="7.45763"><ele></ele><time>2018-6-13T21:14:50Z</time></trkpt>
<trkpt lat="46.22628" lon="7.45789"><ele></ele><time>2018-6-13T21:14:53Z</time></trkpt>
<trkpt lat="46.22621" lon="7.45813"><ele></ele><time>2018-6-13T21:14:56Z</time></trkpt>
<trkpt lat="46.22608" lon="7.45833"><ele></ele><time>2018-6-13T21:14:59Z</time></trkpt>
<trkpt lat="46.22601" lon="7.45841"><ele></ele><time>2018-6-13T21:15:2Z</time></trkpt>
<trkpt lat="46.22589" lon="7.45859"><ele></ele><time>2018-6-13T21:15:5Z</time></trkpt>
<trkpt lat="46.22579" lon="7.45881"><ele></ele><time>2018-6-13T21:15:8Z</time></trkpt>
<trkpt lat="46.22576" lon="7.45908"><ele></ele><time>2018-6-13T21:15:11Z</time></trkpt>
<trkpt lat="46.22575" lon="7.45928"><ele></ele><time>2018-6-13T21:15:14Z</time></trkpt>
<trkpt lat="46.22571" lon="7.45954"><ele></ele><time>2018-6-13T21:15:17Z</time></trkpt>
<trkpt lat="46.22569" lon="7.45982"><ele></ele><time>2018-6-13T21:15:20Z</time></trkpt>
<trkpt lat="46.22574" lon="7.46018"><ele></ele><time>2018-6-13T21:15:23Z</time></trkpt>
<trkpt lat="46.22581" lon="7.46045"><ele></ele><time>2018-6-13T21:15:26Z</time></trkpt>
<trkpt lat="46.2259" lon="7.4607"><ele></ele><time>2018-6-13T21:15:29Z</time></trkpt>
<trkpt lat="46.22604" lon="7.4609"><ele></ele><time>2018-6-13T21:15:32Z</time></trkpt>
<trkpt lat="46.22618" lon="7.46108"><ele></ele><time>2018-6-13T21:15:35Z</time></trkpt>
<trkpt lat="46.2263" lon="7.46127"><ele></ele><time>2018-6-13T21:15:38Z</time></trkpt>
<trkpt lat="46.22637" lon="7.46151"><ele></ele><time>2018-6-13T21:15:41Z</time></trkpt>
<trkpt lat="46.22631" lon="7.46169"><ele></ele><time>2018-6-13T21:15:44Z</time></trkpt>
<trkpt lat="46.22623" lon="7.46161"><ele></ele><time>2018-6-13T21:15:47Z</time></trkpt>
<trkpt lat="46.2261" lon="7.46143"><ele></ele><time>2018-6-13T21:15:50Z</time></trkpt>
<trkpt lat="46.22592" lon="7.4613"><ele></ele><time>2018-6-13T21:15:53Z</time></trkpt>
<trkpt lat="46.22573" lon="7.46126"><ele></ele><time>2018-6-13T21:15:56Z</time></trkpt>
<trkpt lat="46.22556" lon="7.46116"><ele></ele><time>2018-6-13T21:15:59Z</time></trkpt>
<trkpt lat="46.22543" lon="7.46094"><ele></ele><time>2018-6-13T21:16:2Z</time></trkpt>
<trkpt lat="46.22528" lon="7.46082"><ele></ele><time>2018-6-13T21:16:5Z</time></trkpt>
<trkpt lat="46.2252" lon="7.46104"><ele></ele><time>2018-6-13T21:16:8Z</time></trkpt>
<trkpt lat="46.22522" lon="7.46111"><ele></ele><time>2018-6-13T21:16:11Z</time></trkpt>
<trkpt lat="46.22538" lon="7.46126"><ele></ele><time>2018-6-13T21:16:14Z</time></trkpt>
<trkpt lat="46.22552" lon="7.46142"><ele></ele><time>2018-6-13T21:16:17Z</time></trkpt>
<trkpt lat="46.22567" lon="7.46156"><ele></ele><time>2018-6-13T21:16:20Z</time></trkpt>
<trkpt lat="46.22579" lon="7.46175"><ele></ele><time>2018-6-13T21:16:23Z</time></trkpt>
<trkpt lat="46.2258" lon="7.46177"><ele></ele><time>2018-6-13T21:16:26Z</time></trkpt>
<trkpt lat="46.22584" lon="7.46185"><ele></ele><time>2018-6-13T21:16:29Z</time></trkpt>
<trkpt lat="46.22593" lon="7.4621"><ele></ele><time>2018-6-13T21:16:32Z</time></trkpt>
<trkpt lat="46.22602" lon="7.46234"><ele></ele><time>2018-6-13T21:16:35Z</time></trkpt>
<trkpt lat="46.22614" lon="7.46255"><ele></ele><time>2018-6-13T21:16:38Z</time></trkpt>
<trkpt lat="46.22615" lon="7.4626"><ele></ele><time>2018-6-13T21:16:41Z</time></trkpt>
<trkpt lat="46.22599" lon="7.46265"><ele></ele><time>2018-6-13T21:16:44Z</time></trkpt>
<trkpt lat="46.22598" lon="7.46263"><ele></ele><time>2018-6-13T21:16:47Z</time></trkpt>
<trkpt lat="46.2259" lon="7.46251"><ele></ele><time>2018-6-13T21:16:50Z</time></trkpt>
<trkpt lat="46.22577" lon="7.46239"><ele></ele><time>2018-6-13T21:16:53Z</time></trkpt>
<trkpt lat="46.22575" lon="7.46237"><ele></ele><time>2018-6-13T21:16:56Z</time></trkpt>
<trkpt lat="46.22569" lon="7.46228"><ele></ele><time>2018-6-13T21:16:59Z</time></trkpt>
<trkpt lat="46.22563" lon="7.46221"><ele></ele><time>2018-6-13T21:17:2Z</time></trkpt>
<trkpt lat="46.22554" lon="7.46207"><ele></ele><time>2018-6-13T21:17:5Z</time></trkpt>
<trkpt lat="46.22547" lon="7.46197"><ele></ele><time>2018-6-13T21:17:8Z</time></trkpt>
<trkpt lat="46.22539" lon="7.46191"><ele></ele><time>2018-6-13T21:17:11Z</time></trkpt>
<trkpt lat="46.22521" lon="7.46184"><ele></ele><time>2018-6-13T21:17:14Z</time></trkpt>
<trkpt lat="46.22516" lon="7.46178"><ele></ele><time>2018-6-13T21:17:17Z</time></trkpt>
<trkpt lat="46.22499" lon="7.46169"><ele></ele><time>2018-6-13T21:17:20Z</time></trkpt>
<trkpt lat="46.22484" lon="7.46155"><ele></ele><time>2018-6-13T21:17:23Z</time></trkpt>
<trkpt lat="46.22468" lon="7.46157"><ele></ele><time>2018-6-13T21:17:26Z</time></trkpt>
<trkpt lat="46.22474" lon="7.46177"><ele></ele><time>2018-6-13T21:17:29Z</time></trkpt>
<trkpt lat="46.22476" lon="7.46189"><ele></ele><time>2018-6-13T21:17:32Z</time></trkpt>
<trkpt lat="46.22461" lon="7.4619"><ele></ele><time>2018-6-13T21:17:35Z</time></trkpt>
<trkpt lat="46.22451" lon="7.46168"><ele></ele><time>2018-6-13T21:17:38Z</time></trkpt>
<trkpt lat="46.2245" lon="7.46143"><ele></ele><time>2018-6-13T21:17:41Z</time></trkpt>
<trkpt lat="46.22451" lon="7.4613"><ele></ele><time>2018-6-13T21:17:44Z</time></trkpt>
<trkpt lat="46.2245" lon="7.46102"><ele></ele><time>2018-6-13T21:17:47Z</time></trkpt>
<trkpt lat="46.22444" lon="7.46078"><ele></ele><time>2018-6-13T21:17:50Z</time></trkpt>
<trkpt lat="46.22433" lon="7.46057"><ele></ele><time>2018-6-13T21:17:53Z</time></trkpt>
<trkpt lat="46.22426" lon="7.46034"><ele></ele><time>2018-6-13T21:17:56Z</time></trkpt>
<trkpt lat="46.22423" lon="7.46005"><ele></ele><time>2018-6-13T21:17:59Z</time></trkpt>
<trkpt lat="46.22423" lon="7.46"><ele></ele><time>2018-6-13T21:18:2Z</time></trkpt>
<trkpt lat="46.22423" lon="7.45996"><ele></ele><time>2018-6-13T21:18:5Z</time></trkpt>
<trkpt lat="46.22421" lon="7.45969"><ele></ele><time>2018-6-13T21:18:8Z</time></trkpt>
<trkpt lat="46.22421" lon="7.45968"><ele></ele><time>2018-6-13T21:18:11Z</time></trkpt>
<trkpt lat="46.22418" lon="7.45958"><ele></ele><time>2018-6-13T21:18:14Z</time></trkpt>
<trkpt lat="46.22412" lon="7.45936"><ele></ele><time>2018-6-13T21:18:17Z</time></trkpt>
<trkpt lat="46.22409" lon="7.45929"><ele></ele><time>2018-6-13T21:18:20Z</time></trkpt>
<trkpt lat="46.22408" lon="7.45918"><ele></ele><time>2018-6-13T21:18:23Z</time></trkpt>
<trkpt lat="46.22407" lon="7.4588"><ele></ele><time>2018-6-13T21:18:26Z</time></trkpt>
<trkpt lat="46.22408" lon="7.45859"><ele></ele><time>2018-6-13T21:18:29Z</time></trkpt>
<trkpt lat="46.22414" lon="7.45834"><ele></ele><time>2018-6-13T21:18:32Z</time></trkpt>
<trkpt lat="46.22418" lon="7.45824"><ele></ele><time>2018-6-13T21:18:35Z</time></trkpt>
<trkpt lat="46.22425" lon="7.45811"><ele></ele><time>2018-6-13T21:18:38Z</time></trkpt>
<trkpt lat="46.22432" lon="7.45789"><ele></ele><time>2018-6-13T21:18:41Z</time></trkpt>
<trkpt lat="46.22434" lon="7.45783"><ele></ele><time>2018-6-13T21:18:44Z</time></trkpt>
<trkpt lat="46.22434" lon="7.45757"><ele></ele><time>2018-6-13T21:18:47Z</time></trkpt>
<trkpt lat="46.22433" lon="7.45722"><ele></ele><time>2018-6-13T21:18:50Z</time></trkpt>
<trkpt lat="46.22425" lon="7.45698"><ele></ele><time>2018-6-13T21:18:53Z</time></trkpt>
<trkpt lat="46.2242" lon="7.45685"><ele></ele><time>2018-6-13T21:18:56Z</time></trkpt>
<trkpt lat="46.22414" lon="7.45677"><ele></ele><time>2018-6-13T21:18:59Z</time></trkpt>
<trkpt lat="46.22408" lon="7.45676"><ele></ele><time>2018-6-13T21:19:2Z</time></trkpt>
<trkpt lat="46.22403" lon="7.45677"><ele></ele><time>2018-6-13T21:19:5Z</time></trkpt>
<trkpt lat="46.22396" lon="7.45678"><ele></ele><time>2018-6-13T21:19:8Z</time></trkpt>
<trkpt lat="46.22392" lon="7.45698"><ele></ele><time>2018-6-13T21:19:11Z</time></trkpt>
<trkpt lat="46.22395" lon="7.45724"><ele></ele><time>2018-6-13T21:19:14Z</time></trkpt>
<trkpt lat="46.22394" lon="7.45753"><ele></ele><time>2018-6-13T21:19:17Z</time></trkpt>
<trkpt lat="46.22392" lon="7.4578"><ele></ele><time>2018-6-13T21:19:20Z</time></trkpt>
<trkpt lat="46.22388" lon="7.458"><ele></ele><time>2018-6-13T21:19:23Z</time></trkpt>
<trkpt lat="46.22384" lon="7.45825"><ele></ele><time>2018-6-13T21:19:26Z</time></trkpt>
<trkpt lat="46.22376" lon="7.4585"><ele></ele><time>2018-6-13T21:19:29Z</time></trkpt>
<trkpt lat="46.2237" lon="7.45863"><ele></ele><time>2018-6-13T21:19:32Z</time></trkpt>
<trkpt lat="46.22367" lon="7.45863"><ele></ele><time>2018-6-13T21:19:35Z</time></trkpt>
<trkpt lat="46.22363" lon="7.45857"><ele></ele><time>2018-6-13T21:19:38Z</time></trkpt>
<trkpt lat="46.22363" lon="7.45842"><ele></ele><time>2018-6-13T21:19:41Z</time></trkpt>
<trkpt lat="46.22365" lon="7.45836"><ele></ele><time>2018-6-13T21:19:44Z</time></trkpt>
<trkpt lat="46.22366" lon="7.45834"><ele></ele><time>2018-6-13T21:19:47Z</time></trkpt>
<trkpt lat="46.22361" lon="7.45829"><ele></ele><time>2018-6-13T21:19:50Z</time></trkpt>
<trkpt lat="46.22362" lon="7.45817"><ele></ele><time>2018-6-13T21:19:53Z</time></trkpt>
<trkpt lat="46.22364" lon="7.45789"><ele></ele><time>2018-6-13T21:19:56Z</time></trkpt>
<trkpt lat="46.22364" lon="7.45761"><ele></ele><time>2018-6-13T21:19:59Z</time></trkpt>
<trkpt lat="46.22365" lon="7.45737"><ele></ele><time>2018-6-13T21:20:2Z</time></trkpt>
<trkpt lat="46.22364" lon="7.45727"><ele></ele><time>2018-6-13T21:20:5Z</time></trkpt>
<trkpt lat="46.22365" lon="7.45701"><ele></ele><time>2018-6-13T21:20:8Z</time></trkpt>
<trkpt lat="46.22366" lon="7.45674"><ele></ele><time>2018-6-13T21:20:11Z</time></trkpt>
<trkpt lat="46.22363" lon="7.45646"><ele></ele><time>2018-6-13T21:20:14Z</time></trkpt>
<trkpt lat="46.22364" lon="7.45619"><ele></ele><time>2018-6-13T21:20:17Z</time></trkpt>
<trkpt lat="46.22372" lon="7.45596"><ele></ele><time>2018-6-13T21:20:20Z</time></trkpt>
<trkpt lat="46.22377" lon="7.45565"><ele></ele><time>2018-6-13T21:20:23Z</time></trkpt>
<trkpt lat="46.22382" lon="7.45556"><ele></ele><time>2018-6-13T21:20:26Z</time></trkpt>
<trkpt lat="46.22393" lon="7.45534"><ele></ele><time>2018-6-13T21:20:29Z</time></trkpt>
<trkpt lat="46.22394" lon="7.45529"><ele></ele><time>2018-6-13T21:20:32Z</time></trkpt>
<trkpt lat="46.22396" lon="7.45523"><ele></ele><time>2018-6-13T21:20:35Z</time></trkpt>
<trkpt lat="46.2241" lon="7.45504"><ele></ele><time>2018-6-13T21:20:38Z</time></trkpt>
<trkpt lat="46.22417" lon="7.45497"><ele></ele><time>2018-6-13T21:20:41Z</time></trkpt>
<trkpt lat="46.22421" lon="7.45495"><ele></ele><time>2018-6-13T21:20:44Z</time></trkpt>
<trkpt lat="46.22423" lon="7.45491"><ele></ele><time>2018-6-13T21:20:47Z</time></trkpt>
<trkpt lat="46.22438" lon="7.45464"><ele></ele><time>2018-6-13T21:20:50Z</time></trkpt>
<trkpt lat="46.22443" lon="7.45446"><ele></ele><time>2018-6-13T21:20:53Z</time></trkpt>
<trkpt lat="46.22445" lon="7.45438"><ele></ele><time>2018-6-13T21:20:56Z</time></trkpt>
<trkpt lat="46.22444" lon="7.45413"><ele></ele><time>2018-6-13T21:20:59Z</time></trkpt>
<trkpt lat="46.22445" lon="7.45404"><ele></ele><time>2018-6-13T21:21:2Z</time></trkpt>
<trkpt lat="46.22444" lon="7.454"><ele></ele><time>2018-6-13T21:21:5Z</time></trkpt>
<trkpt lat="46.22445" lon="7.45395"><ele></ele><time>2018-6-13T21:21:8Z</time></trkpt>
<trkpt lat="46.22446" lon="7.45391"><ele></ele><time>2018-6-13T21:21:11Z</time></trkpt>
<trkpt lat="46.22447" lon="7.45389"><ele></ele><time>2018-6-13T21:21:14Z</time></trkpt>
<trkpt lat="46.22448" lon="7.45364"><ele></ele><time>2018-6-13T21:21:17Z</time></trkpt>
<trkpt lat="46.22438" lon="7.45351"><ele></ele><time>2018-6-13T21:21:20Z</time></trkpt>
<trkpt lat="46.22441" lon="7.45348"><ele></ele><time>2018-6-13T21:21:23Z</time></trkpt>
<trkpt lat="46.22445" lon="7.45336"><ele></ele><time>2018-6-13T21:21:26Z</time></trkpt>
<trkpt lat="46.2244" lon="7.45334"><ele></ele><time>2018-6-13T21:21:29Z</time></trkpt>
<trkpt lat="46.22437" lon="7.45322"><ele></ele><time>2018-6-13T21:21:32Z</time></trkpt>
<trkpt lat="46.22439" lon="7.45321"><ele></ele><time>2018-6-13T21:21:35Z</time></trkpt>
<trkpt lat="46.22445" lon="7.45308"><ele></ele><time>2018-6-13T21:21:38Z</time></trkpt>
<trkpt lat="46.22434" lon="7.45289"><ele></ele><time>2018-6-13T21:21:41Z</time></trkpt>
<trkpt lat="46.22434" lon="7.45286"><ele></ele><time>2018-6-13T21:21:44Z</time></trkpt>
<trkpt lat="46.22434" lon="7.45279"><ele></ele><time>2018-6-13T21:21:47Z</time></trkpt>
<trkpt lat="46.22434" lon="7.45263"><ele></ele><time>2018-6-13T21:21:50Z</time></trkpt>
<trkpt lat="46.22433" lon="7.45244"><ele></ele><time>2018-6-13T21:21:53Z</time></trkpt>
<trkpt lat="46.2243" lon="7.4522"><ele></ele><time>2018-6-13T21:21:56Z</time></trkpt>
<trkpt lat="46.22425" lon="7.45206"><ele></ele><time>2018-6-13T21:21:59Z</time></trkpt>
<trkpt lat="46.22404" lon="7.45199"><ele></ele><time>2018-6-13T21:22:2Z</time></trkpt>
<trkpt lat="46.22388" lon="7.45192"><ele></ele><time>2018-6-13T21:22:5Z</time></trkpt>
<trkpt lat="46.22393" lon="7.45168"><ele></ele><time>2018-6-13T21:22:8Z</time></trkpt>
<trkpt lat="46.22394" lon="7.45169"><ele></ele><time>2018-6-13T21:22:11Z</time></trkpt>
<trkpt lat="46.22396" lon="7.45168"><ele></ele><time>2018-6-13T21:22:14Z</time></trkpt>
<trkpt lat="46.22395" lon="7.45168"><ele></ele><time>2018-6-13T21:22:17Z</time></trkpt>
<trkpt lat="46.22395" lon="7.45166"><ele></ele><time>2018-6-13T21:22:20Z</time></trkpt>
<trkpt lat="46.22391" lon="7.45149"><ele></ele><time>2018-6-13T21:22:23Z</time></trkpt>
<trkpt lat="46.22393" lon="7.45137"><ele></ele><time>2018-6-13T21:22:26Z</time></trkpt>
<trkpt lat="46.22395" lon="7.45133"><ele></ele><time>2018-6-13T21:22:29Z</time></trkpt>
<trkpt lat="46.22396" lon="7.45129"><ele></ele><time>2018-6-13T21:22:32Z</time></trkpt>
<trkpt lat="46.22396" lon="7.45113"><ele></ele><time>2018-6-13T21:22:35Z</time></trkpt>
<trkpt lat="46.22394" lon="7.45095"><ele></ele><time>2018-6-13T21:22:38Z</time></trkpt>
<trkpt lat="46.22384" lon="7.45073"><ele></ele><time>2018-6-13T21:22:41Z</time></trkpt>
<trkpt lat="46.22397" lon="7.45059"><ele></ele><time>2018-6-13T21:22:44Z</time></trkpt>
<trkpt lat="46.22412" lon="7.45045"><ele></ele><time>2018-6-13T21:22:47Z</time></trkpt>
<trkpt lat="46.22411" lon="7.45035"><ele></ele><time>2018-6-13T21:22:50Z</time></trkpt>
<trkpt lat="46.22406" lon="7.45008"><ele></ele><time>2018-6-13T21:22:53Z</time></trkpt>
<trkpt lat="46.22405" lon="7.45001"><ele></ele><time>2018-6-13T21:22:56Z</time></trkpt>
<trkpt lat="46.22407" lon="7.44982"><ele></ele><time>2018-6-13T21:22:59Z</time></trkpt>
<trkpt lat="46.22411" lon="7.44968"><ele></ele><time>2018-6-13T21:23:2Z</time></trkpt>
<trkpt lat="46.22408" lon="7.44941"><ele></ele><time>2018-6-13T21:23:5Z</time></trkpt>
<trkpt lat="46.22414" lon="7.44914"><ele></ele><time>2018-6-13T21:23:8Z</time></trkpt>
<trkpt lat="46.22416" lon="7.44885"><ele></ele><time>2018-6-13T21:23:11Z</time></trkpt>
<trkpt lat="46.22412" lon="7.44874"><ele></ele><time>2018-6-13T21:23:14Z</time></trkpt>
<trkpt lat="46.22404" lon="7.44844"><ele></ele><time>2018-6-13T21:23:17Z</time></trkpt>
<trkpt lat="46.22406" lon="7.44819"><ele></ele><time>2018-6-13T21:23:20Z</time></trkpt>
<trkpt lat="46.22407" lon="7.44792"><ele></ele><time>2018-6-13T21:23:23Z</time></trkpt>
<trkpt lat="46.22403" lon="7.44761"><ele></ele><time>2018-6-13T21:23:26Z</time></trkpt>
<trkpt lat="46.22407" lon="7.44741"><ele></ele><time>2018-6-13T21:23:29Z</time></trkpt>
<trkpt lat="46.22409" lon="7.44728"><ele></ele><time>2018-6-13T21:23:32Z</time></trkpt>
<trkpt lat="46.22413" lon="7.4471"><ele></ele><time>2018-6-13T21:23:35Z</time></trkpt>
<trkpt lat="46.22415" lon="7.44682"><ele></ele><time>2018-6-13T21:23:38Z</time></trkpt>
<trkpt lat="46.22413" lon="7.44669"><ele></ele><time>2018-6-13T21:23:41Z</time></trkpt>
<trkpt lat="46.22428" lon="7.44652"><ele></ele><time>2018-6-13T21:23:44Z</time></trkpt>
<trkpt lat="46.2243" lon="7.44643"><ele></ele><time>2018-6-13T21:23:47Z</time></trkpt>
<trkpt lat="46.2243" lon="7.44643"><ele></ele><time>2018-6-13T21:23:50Z</time></trkpt>
<trkpt lat="46.22434" lon="7.44614"><ele></ele><time>2018-6-13T21:23:53Z</time></trkpt>
<trkpt lat="46.22431" lon="7.44588"><ele></ele><time>2018-6-13T21:23:56Z</time></trkpt>
<trkpt lat="46.22424" lon="7.44563"><ele></ele><time>2018-6-13T21:23:59Z</time></trkpt>
<trkpt lat="46.22418" lon="7.44536"><ele></ele><time>2018-6-13T21:24:2Z</time></trkpt>
<trkpt lat="46.22416" lon="7.44523"><ele></ele><time>2018-6-13T21:24:5Z</time></trkpt>
<trkpt lat="46.22419" lon="7.44494"><ele></ele><time>2018-6-13T21:24:8Z</time></trkpt>
<trkpt lat="46.22418" lon="7.44466"><ele></ele><time>2018-6-13T21:24:11Z</time></trkpt>
<trkpt lat="46.22415" lon="7.44457"><ele></ele><time>2018-6-13T21:24:14Z</time></trkpt>
<trkpt lat="46.2241" lon="7.44444"><ele></ele><time>2018-6-13T21:24:17Z</time></trkpt>
<trkpt lat="46.22411" lon="7.44415"><ele></ele><time>2018-6-13T21:24:20Z</time></trkpt>
<trkpt lat="46.2241" lon="7.44398"><ele></ele><time>2018-6-13T21:24:23Z</time></trkpt>
<trkpt lat="46.22406" lon="7.44387"><ele></ele><time>2018-6-13T21:24:26Z</time></trkpt>
<trkpt lat="46.22398" lon="7.44363"><ele></ele><time>2018-6-13T21:24:29Z</time></trkpt>
<trkpt lat="46.22393" lon="7.44346"><ele></ele><time>2018-6-13T21:24:32Z</time></trkpt>
<trkpt lat="46.22388" lon="7.4432"><ele></ele><time>2018-6-13T21:24:35Z</time></trkpt>
<trkpt lat="46.22391" lon="7.44292"><ele></ele><time>2018-6-13T21:24:38Z</time></trkpt>
<trkpt lat="46.22389" lon="7.44286"><ele></ele><time>2018-6-13T21:24:41Z</time></trkpt>
<trkpt lat="46.22386" lon="7.44271"><ele></ele><time>2018-6-13T21:24:44Z</time></trkpt>
<trkpt lat="46.2238" lon="7.44247"><ele></ele><time>2018-6-13T21:24:47Z</time></trkpt>
<trkpt lat="46.22377" lon="7.44228"><ele></ele><time>2018-6-13T21:24:50Z</time></trkpt>
<trkpt lat="46.22373" lon="7.44202"><ele></ele><time>2018-6-13T21:24:53Z</time></trkpt>
<trkpt lat="46.22366" lon="7.44176"><ele></ele><time>2018-6-13T21:24:56Z</time></trkpt>
<trkpt lat="46.22362" lon="7.44151"><ele></ele><time>2018-6-13T21:24:59Z</time></trkpt>
<trkpt lat="46.22356" lon="7.4413"><ele></ele><time>2018-6-13T21:25:2Z</time></trkpt>
<trkpt lat="46.22351" lon="7.44094"><ele></ele><time>2018-6-13T21:25:5Z</time></trkpt>
<trkpt lat="46.22344" lon="7.44072"><ele></ele><time>2018-6-13T21:25:8Z</time></trkpt>
<trkpt lat="46.22341" lon="7.44062"><ele></ele><time>2018-6-13T21:25:11Z</time></trkpt>
<trkpt lat="46.22345" lon="7.44035"><ele></ele><time>2018-6-13T21:25:14Z</time></trkpt>
<trkpt lat="46.22349" lon="7.44006"><ele></ele><time>2018-6-13T21:25:17Z</time></trkpt>
<trkpt lat="46.2235" lon="7.43978"><ele></ele><time>2018-6-13T21:25:20Z</time></trkpt>
<trkpt lat="46.2235" lon="7.43952"><ele></ele><time>2018-6-13T21:25:23Z</time></trkpt>
<trkpt lat="46.22346" lon="7.43924"><ele></ele><time>2018-6-13T21:25:26Z</time></trkpt>
<trkpt lat="46.2234" lon="7.43899"><ele></ele><time>2018-6-13T21:25:29Z</time></trkpt>
<trkpt lat="46.22338" lon="7.43872"><ele></ele><time>2018-6-13T21:25:32Z</time></trkpt>
<trkpt lat="46.22338" lon="7.4386"><ele></ele><time>2018-6-13T21:25:35Z</time></trkpt>
<trkpt lat="46.22338" lon="7.43825"><ele></ele><time>2018-6-13T21:25:38Z</time></trkpt>
<trkpt lat="46.22338" lon="7.43808"><ele></ele><time>2018-6-13T21:25:41Z</time></trkpt>
<trkpt lat="46.22332" lon="7.4379"><ele></ele><time>2018-6-13T21:25:44Z</time></trkpt>
<trkpt lat="46.22321" lon="7.43766"><ele></ele><time>2018-6-13T21:25:47Z</time></trkpt>
<trkpt lat="46.22307" lon="7.43744"><ele></ele><time>2018-6-13T21:25:50Z</time></trkpt>
<trkpt lat="46.22299" lon="7.43732"><ele></ele><time>2018-6-13T21:25:53Z</time></trkpt>
<trkpt lat="46.22285" lon="7.43709"><ele></ele><time>2018-6-13T21:25:56Z</time></trkpt>
<trkpt lat="46.2227" lon="7.43689"><ele></ele><time>2018-6-13T21:25:59Z</time></trkpt>
<trkpt lat="46.22257" lon="7.43676"><ele></ele><time>2018-6-13T21:26:2Z</time></trkpt>
<trkpt lat="46.22246" lon="7.43654"><ele></ele><time>2018-6-13T21:26:5Z</time></trkpt>
<trkpt lat="46.22229" lon="7.4362"><ele></ele><time>2018-6-13T21:26:8Z</time></trkpt>
<trkpt lat="46.22215" lon="7.43601"><ele></ele><time>2018-6-13T21:26:11Z</time></trkpt>
<trkpt lat="46.22196" lon="7.43596"><ele></ele><time>2018-6-13T21:26:14Z</time></trkpt>
<trkpt lat="46.22177" lon="7.43598"><ele></ele><time>2018-6-13T21:26:17Z</time></trkpt>
<trkpt lat="46.22155" lon="7.43584"><ele></ele><time>2018-6-13T21:26:20Z</time></trkpt>
<trkpt lat="46.22141" lon="7.43566"><ele></ele><time>2018-6-13T21:26:23Z</time></trkpt>
<trkpt lat="46.22135" lon="7.43561"><ele></ele><time>2018-6-13T21:26:26Z</time></trkpt>
<trkpt lat="46.22123" lon="7.43554"><ele></ele><time>2018-6-13T21:26:29Z</time></trkpt>
<trkpt lat="46.2212" lon="7.43552"><ele></ele><time>2018-6-13T21:26:32Z</time></trkpt>
<trkpt lat="46.22117" lon="7.43551"><ele></ele><time>2018-6-13T21:26:35Z</time></trkpt>
<trkpt lat="46.22116" lon="7.43552"><ele></ele><time>2018-6-13T21:26:38Z</time></trkpt>
<trkpt lat="46.22115" lon="7.43552"><ele></ele><time>2018-6-13T21:26:41Z</time></trkpt>
<trkpt lat="46.22113" lon="7.43557"><ele></ele><time>2018-6-13T21:26:44Z</time></trkpt>
<trkpt lat="46.22108" lon="7.43563"><ele></ele><time>2018-6-13T21:26:47Z</time></trkpt>
<trkpt lat="46.22098" lon="7.43572"><ele></ele><time>2018-6-13T21:26:50Z</time></trkpt>
<trkpt lat="46.22095" lon="7.43574"><ele></ele><time>2018-6-13T21:26:53Z</time></trkpt>
<trkpt lat="46.22077" lon="7.43588"><ele></ele><time>2018-6-13T21:26:56Z</time></trkpt>
<trkpt lat="46.2206" lon="7.43584"><ele></ele><time>2018-6-13T21:26:59Z</time></trkpt>
<trkpt lat="46.22047" lon="7.43564"><ele></ele><time>2018-6-13T21:27:2Z</time></trkpt>
<trkpt lat="46.22043" lon="7.43542"><ele></ele><time>2018-6-13T21:27:5Z</time></trkpt>
<trkpt lat="46.22027" lon="7.43523"><ele></ele><time>2018-6-13T21:27:8Z</time></trkpt>
<trkpt lat="46.22005" lon="7.43522"><ele></ele><time>2018-6-13T21:27:11Z</time></trkpt>
<trkpt lat="46.21979" lon="7.43528"><ele></ele><time>2018-6-13T21:27:14Z</time></trkpt>
<trkpt lat="46.2197" lon="7.43531"><ele></ele><time>2018-6-13T21:27:17Z</time></trkpt>
<trkpt lat="46.21952" lon="7.43537"><ele></ele><time>2018-6-13T21:27:20Z</time></trkpt>
<trkpt lat="46.21932" lon="7.4354"><ele></ele><time>2018-6-13T21:27:23Z</time></trkpt>
<trkpt lat="46.21922" lon="7.4354"><ele></ele><time>2018-6-13T21:27:26Z</time></trkpt>
<trkpt lat="46.21913" lon="7.43538"><ele></ele><time>2018-6-13T21:27:29Z</time></trkpt>
<trkpt lat="46.21895" lon="7.43528"><ele></ele><time>2018-6-13T21:27:32Z</time></trkpt>
<trkpt lat="46.2187" lon="7.43518"><ele></ele><time>2018-6-13T21:27:35Z</time></trkpt>
<trkpt lat="46.21851" lon="7.43524"><ele></ele><time>2018-6-13T21:27:38Z</time></trkpt>
<trkpt lat="46.21835" lon="7.43534"><ele></ele><time>2018-6-13T21:27:41Z</time></trkpt>
<trkpt lat="46.21819" lon="7.43546"><ele></ele><time>2018-6-13T21:27:44Z</time></trkpt>
<trkpt lat="46.21811" lon="7.43551"><ele></ele><time>2018-6-13T21:27:47Z</time></trkpt>
<trkpt lat="46.21791" lon="7.43565"><ele></ele><time>2018-6-13T21:27:50Z</time></trkpt>
<trkpt lat="46.21772" lon="7.43576"><ele></ele><time>2018-6-13T21:27:53Z</time></trkpt>
<trkpt lat="46.21766" lon="7.4358"><ele></ele><time>2018-6-13T21:27:56Z</time></trkpt>
<trkpt lat="46.21758" lon="7.43583"><ele></ele><time>2018-6-13T21:27:59Z</time></trkpt>
<trkpt lat="46.2175" lon="7.43586"><ele></ele><time>2018-6-13T21:28:2Z</time></trkpt>
<trkpt lat="46.21742" lon="7.43588"><ele></ele><time>2018-6-13T21:28:5Z</time></trkpt>
<trkpt lat="46.21715" lon="7.43591"><ele></ele><time>2018-6-13T21:28:8Z</time></trkpt>
<trkpt lat="46.21695" lon="7.43588"><ele></ele><time>2018-6-13T21:28:11Z</time></trkpt>
<trkpt lat="46.21674" lon="7.43582"><ele></ele><time>2018-6-13T21:28:14Z</time></trkpt>
<trkpt lat="46.21653" lon="7.43577"><ele></ele><time>2018-6-13T21:28:17Z</time></trkpt>
<trkpt lat="46.21631" lon="7.43574"><ele></ele><time>2018-6-13T21:28:20Z</time></trkpt>
<trkpt lat="46.21608" lon="7.43572"><ele></ele><time>2018-6-13T21:28:23Z</time></trkpt>
<trkpt lat="46.21585" lon="7.4357"><ele></ele><time>2018-6-13T21:28:26Z</time></trkpt>
<trkpt lat="46.21562" lon="7.43566"><ele></ele><time>2018-6-13T21:28:29Z</time></trkpt>
<trkpt lat="46.21539" lon="7.43557"><ele></ele><time>2018-6-13T21:28:32Z</time></trkpt>
<trkpt lat="46.21521" lon="7.43535"><ele></ele><time>2018-6-13T21:28:35Z</time></trkpt>
<trkpt lat="46.21507" lon="7.43511"><ele></ele><time>2018-6-13T21:28:38Z</time></trkpt>
<trkpt lat="46.215" lon="7.43501"><ele></ele><time>2018-6-13T21:28:41Z</time></trkpt>
<trkpt lat="46.21475" lon="7.43491"><ele></ele><time>2018-6-13T21:28:44Z</time></trkpt>
<trkpt lat="46.21456" lon="7.43497"><ele></ele><time>2018-6-13T21:28:47Z</time></trkpt>
<trkpt lat="46.21446" lon="7.43502"><ele></ele><time>2018-6-13T21:28:50Z</time></trkpt>
<trkpt lat="46.21437" lon="7.43507"><ele></ele><time>2018-6-13T21:28:53Z</time></trkpt>
<trkpt lat="46.2142" lon="7.43524"><ele></ele><time>2018-6-13T21:28:56Z</time></trkpt>
<trkpt lat="46.21402" lon="7.43543"><ele></ele><time>2018-6-13T21:28:59Z</time></trkpt>
<trkpt lat="46.21383" lon="7.4356"><ele></ele><time>2018-6-13T21:29:2Z</time></trkpt>
<trkpt lat="46.21363" lon="7.43575"><ele></ele><time>2018-6-13T21:29:5Z</time></trkpt>
<trkpt lat="46.21346" lon="7.4359"><ele></ele><time>2018-6-13T21:29:8Z</time></trkpt>
<trkpt lat="46.2133" lon="7.43604"><ele></ele><time>2018-6-13T21:29:11Z</time></trkpt>
<trkpt lat="46.21324" lon="7.43612"><ele></ele><time>2018-6-13T21:29:14Z</time></trkpt>
<trkpt lat="46.21315" lon="7.4364"><ele></ele><time>2018-6-13T21:29:17Z</time></trkpt>
<trkpt lat="46.21303" lon="7.43662"><ele></ele><time>2018-6-13T21:29:20Z</time></trkpt>
<trkpt lat="46.213" lon="7.43665"><ele></ele><time>2018-6-13T21:29:23Z</time></trkpt>
<trkpt lat="46.21294" lon="7.4367"><ele></ele><time>2018-6-13T21:29:26Z</time></trkpt>
<trkpt lat="46.21288" lon="7.43679"><ele></ele><time>2018-6-13T21:29:29Z</time></trkpt>
<trkpt lat="46.2128" lon="7.43695"><ele></ele><time>2018-6-13T21:29:32Z</time></trkpt>
<trkpt lat="46.21278" lon="7.437"><ele></ele><time>2018-6-13T21:29:35Z</time></trkpt>
<trkpt lat="46.21274" lon="7.43709"><ele></ele><time>2018-6-13T21:29:38Z</time></trkpt>
<trkpt lat="46.21273" lon="7.43713"><ele></ele><time>2018-6-13T21:29:41Z</time></trkpt>
<trkpt lat="46.21269" lon="7.43722"><ele></ele><time>2018-6-13T21:29:44Z</time></trkpt>
<trkpt lat="46.21266" lon="7.43728"><ele></ele><time>2018-6-13T21:29:47Z</time></trkpt>
<trkpt lat="46.21265" lon="7.43733"><ele></ele><time>2018-6-13T21:29:50Z</time></trkpt>
<trkpt lat="46.2126" lon="7.43741"><ele></ele><time>2018-6-13T21:29:53Z</time></trkpt>
<trkpt lat="46.21259" lon="7.43743"><ele></ele><time>2018-6-13T21:29:56Z</time></trkpt>
<trkpt lat="46.21256" lon="7.4375"><ele></ele><time>2018-6-13T21:29:59Z</time></trkpt>
<trkpt lat="46.21254" lon="7.43753"><ele></ele><time>2018-6-13T21:30:2Z</time></trkpt>
<trkpt lat="46.21252" lon="7.43759"><ele></ele><time>2018-6-13T21:30:5Z</time></trkpt>
<trkpt lat="46.2125" lon="7.43762"><ele></ele><time>2018-6-13T21:30:8Z</time></trkpt>
<trkpt lat="46.21249" lon="7.43765"><ele></ele><time>2018-6-13T21:30:11Z</time></trkpt>
<trkpt lat="46.21245" lon="7.43771"><ele></ele><time>2018-6-13T21:30:14Z</time></trkpt>
<trkpt lat="46.21244" lon="7.43774"><ele></ele><time>2018-6-13T21:30:17Z</time></trkpt>
<trkpt lat="46.21238" lon="7.43782"><ele></ele><time>2018-6-13T21:30:20Z</time></trkpt>
<trkpt lat="46.21233" lon="7.43787"><ele></ele><time>2018-6-13T21:30:23Z</time></trkpt>
<trkpt lat="46.21224" lon="7.43798"><ele></ele><time>2018-6-13T21:30:26Z</time></trkpt>
<trkpt lat="46.21218" lon="7.43803"><ele></ele><time>2018-6-13T21:30:29Z</time></trkpt>
<trkpt lat="46.21217" lon="7.43804"><ele></ele><time>2018-6-13T21:30:32Z</time></trkpt>
<trkpt lat="46.21216" lon="7.43806"><ele></ele><time>2018-6-13T21:30:35Z</time></trkpt>
<trkpt lat="46.21215" lon="7.43807"><ele></ele><time>2018-6-13T21:30:38Z</time></trkpt>
<trkpt lat="46.21212" lon="7.43811"><ele></ele><time>2018-6-13T21:30:41Z</time></trkpt>
<trkpt lat="46.21206" lon="7.43821"><ele></ele><time>2018-6-13T21:30:44Z</time></trkpt>
<trkpt lat="46.21203" lon="7.43826"><ele></ele><time>2018-6-13T21:30:47Z</time></trkpt>
<trkpt lat="46.21197" lon="7.43842"><ele></ele><time>2018-6-13T21:30:50Z</time></trkpt>
<trkpt lat="46.21188" lon="7.4386"><ele></ele><time>2018-6-13T21:30:53Z</time></trkpt>
<trkpt lat="46.21179" lon="7.43877"><ele></ele><time>2018-6-13T21:30:56Z</time></trkpt>
<trkpt lat="46.2117" lon="7.43895"><ele></ele><time>2018-6-13T21:30:59Z</time></trkpt>
<trkpt lat="46.21165" lon="7.43904"><ele></ele><time>2018-6-13T21:31:2Z</time></trkpt>
<trkpt lat="46.21163" lon="7.4391"><ele></ele><time>2018-6-13T21:31:5Z</time></trkpt>
<trkpt lat="46.21156" lon="7.4392"><ele></ele><time>2018-6-13T21:31:8Z</time></trkpt>
<trkpt lat="46.21141" lon="7.43936"><ele></ele><time>2018-6-13T21:31:11Z</time></trkpt>
<trkpt lat="46.21125" lon="7.43948"><ele></ele><time>2018-6-13T21:31:14Z</time></trkpt>
<trkpt lat="46.2111" lon="7.43963"><ele></ele><time>2018-6-13T21:31:17Z</time></trkpt>
<trkpt lat="46.21096" lon="7.4398"><ele></ele><time>2018-6-13T21:31:20Z</time></trkpt>
<trkpt lat="46.21082" lon="7.43998"><ele></ele><time>2018-6-13T21:31:23Z</time></trkpt>
<trkpt lat="46.21072" lon="7.4401"><ele></ele><time>2018-6-13T21:31:26Z</time></trkpt>
<trkpt lat="46.21053" lon="7.44034"><ele></ele><time>2018-6-13T21:31:29Z</time></trkpt>
<trkpt lat="46.21039" lon="7.44051"><ele></ele><time>2018-6-13T21:31:32Z</time></trkpt>
<trkpt lat="46.21024" lon="7.44069"><ele></ele><time>2018-6-13T21:31:35Z</time></trkpt>
<trkpt lat="46.21023" lon="7.4407"><ele></ele><time>2018-6-13T21:31:38Z</time></trkpt>
<trkpt lat="46.21008" lon="7.44084"><ele></ele><time>2018-6-13T21:31:41Z</time></trkpt>
<trkpt lat="46.20991" lon="7.44098"><ele></ele><time>2018-6-13T21:31:44Z</time></trkpt>
<trkpt lat="46.20968" lon="7.44113"><ele></ele><time>2018-6-13T21:31:47Z</time></trkpt>
<trkpt lat="46.2095" lon="7.44118"><ele></ele><time>2018-6-13T21:31:50Z</time></trkpt>
<trkpt lat="46.20931" lon="7.44122"><ele></ele><time>2018-6-13T21:31:53Z</time></trkpt>
<trkpt lat="46.20912" lon="7.44125"><ele></ele><time>2018-6-13T21:31:56Z</time></trkpt>
<trkpt lat="46.20901" lon="7.44126"><ele></ele><time>2018-6-13T21:31:59Z</time></trkpt>
<trkpt lat="46.20894" lon="7.44128"><ele></ele><time>2018-6-13T21:32:2Z</time></trkpt>
<trkpt lat="46.20888" lon="7.44129"><ele></ele><time>2018-6-13T21:32:5Z</time></trkpt>
<trkpt lat="46.20869" lon="7.44133"><ele></ele><time>2018-6-13T21:32:8Z</time></trkpt>
<trkpt lat="46.20857" lon="7.44137"><ele></ele><time>2018-6-13T21:32:11Z</time></trkpt>
<trkpt lat="46.20839" lon="7.44143"><ele></ele><time>2018-6-13T21:32:14Z</time></trkpt>
<trkpt lat="46.20821" lon="7.44149"><ele></ele><time>2018-6-13T21:32:17Z</time></trkpt>
<trkpt lat="46.20803" lon="7.44154"><ele></ele><time>2018-6-13T21:32:20Z</time></trkpt>
<trkpt lat="46.20784" lon="7.44161"><ele></ele><time>2018-6-13T21:32:23Z</time></trkpt>
<trkpt lat="46.20758" lon="7.44163"><ele></ele><time>2018-6-13T21:32:26Z</time></trkpt>
<trkpt lat="46.2074" lon="7.44159"><ele></ele><time>2018-6-13T21:32:29Z</time></trkpt>
<trkpt lat="46.20722" lon="7.44151"><ele></ele><time>2018-6-13T21:32:32Z</time></trkpt>
<trkpt lat="46.20705" lon="7.44142"><ele></ele><time>2018-6-13T21:32:35Z</time></trkpt>
<trkpt lat="46.20689" lon="7.44128"><ele></ele><time>2018-6-13T21:32:38Z</time></trkpt>
<trkpt lat="46.20674" lon="7.44115"><ele></ele><time>2018-6-13T21:32:41Z</time></trkpt>
<trkpt lat="46.20657" lon="7.441"><ele></ele><time>2018-6-13T21:32:44Z</time></trkpt>
<trkpt lat="46.20641" lon="7.44086"><ele></ele><time>2018-6-13T21:32:47Z</time></trkpt>
<trkpt lat="46.20618" lon="7.44067"><ele></ele><time>2018-6-13T21:32:50Z</time></trkpt>
<trkpt lat="46.20611" lon="7.44062"><ele></ele><time>2018-6-13T21:32:53Z</time></trkpt>
<trkpt lat="46.20603" lon="7.44055"><ele></ele><time>2018-6-13T21:32:56Z</time></trkpt>
<trkpt lat="46.2059" lon="7.44045"><ele></ele><time>2018-6-13T21:32:59Z</time></trkpt>
<trkpt lat="46.20578" lon="7.44033"><ele></ele><time>2018-6-13T21:33:2Z</time></trkpt>
<trkpt lat="46.20577" lon="7.44031"><ele></ele><time>2018-6-13T21:33:5Z</time></trkpt>
<trkpt lat="46.20569" lon="7.44008"><ele></ele><time>2018-6-13T21:33:8Z</time></trkpt>
<trkpt lat="46.20561" lon="7.43987"><ele></ele><time>2018-6-13T21:33:11Z</time></trkpt>
<trkpt lat="46.20575" lon="7.43972"><ele></ele><time>2018-6-13T21:33:14Z</time></trkpt>
<trkpt lat="46.20592" lon="7.43962"><ele></ele><time>2018-6-13T21:33:17Z</time></trkpt>
<trkpt lat="46.20612" lon="7.43955"><ele></ele><time>2018-6-13T21:33:20Z</time></trkpt>
<trkpt lat="46.20629" lon="7.43954"><ele></ele><time>2018-6-13T21:33:23Z</time></trkpt>
<trkpt lat="46.20643" lon="7.43958"><ele></ele><time>2018-6-13T21:33:26Z</time></trkpt>
<trkpt lat="46.20647" lon="7.43961"><ele></ele><time>2018-6-13T21:33:29Z</time></trkpt>
<trkpt lat="46.20665" lon="7.43973"><ele></ele><time>2018-6-13T21:33:32Z</time></trkpt>
<trkpt lat="46.20669" lon="7.43959"><ele></ele><time>2018-6-13T21:33:35Z</time></trkpt>
</trkseg></trk></gpx>